Wetterdaten: aktuell Dienstag, 25.09.2018 14:00
Datum Zeit Temp. A. Feuchte A. Luftdruck Regen Wind Richtung Richtung Taupunkt Windchill
25.09.2018 14:00 12,1 C 41 % 1034,2 hPa 0,0 mm 6,0 km/h N-NO 19 -0,7 C 12,1 C
25.09.2018 13:59 12,2 C 41 % 1034,2 hPa 0,0 mm 0,5 km/h N-NO 13 -0,7 C 12,2 C
25.09.2018 13:58 12,2 C 44 % 1034,3 hPa 0,0 mm 0,0 km/h O-NO 63 0,3 C 12,2 C
25.09.2018 13:57 12,1 C 44 % 1034,3 hPa 0,0 mm 0,0 km/h NO 47 0,2 C 12,1 C
25.09.2018 13:56 12,1 C 44 % 1034,3 hPa 0,0 mm 0,0 km/h O 83 0,2 C 12,1 C
25.09.2018 13:55 12,1 C 45 % 1034,2 hPa 0,0 mm 0,0 km/h NO 55 0,5 C 12,1 C
25.09.2018 13:54 12,0 C 44 % 1034,2 hPa 0,0 mm 0,0 km/h NO 46 0,1 C 12,0 C
25.09.2018 13:53 11,9 C 42 % 1034,2 hPa 0,0 mm 0,3 km/h NO 53 -0,6 C 11,9 C
25.09.2018 13:52 11,9 C 41 % 1034,2 hPa 0,0 mm 0,0 km/h NO 50 -0,9 C 11,9 C
25.09.2018 13:51 11,9 C 42 % 1034,3 hPa 0,0 mm 3,0 km/h NO 48 -0,6 C 11,9 C
25.09.2018 13:50 11,9 C 45 % 1034,3 hPa 0,0 mm 6,4 km/h O-NO 61 0,4 C 11,9 C
25.09.2018 13:49 11,9 C 43 % 1034,3 hPa 0,0 mm 2,9 km/h N-NO 26 -0,3 C 11,9 C
25.09.2018 13:48 11,9 C 43 % 1034,2 hPa 0,0 mm 0,0 km/h O 80 -0,3 C 11,9 C
25.09.2018 13:47 11,9 C 43 % 1034,2 hPa 0,0 mm 3,5 km/h N-NO 33 -0,3 C 11,9 C
25.09.2018 13:46 11,9 C 43 % 1034,2 hPa 0,0 mm 9,5 km/h NO 49 -0,3 C 10,0 C
25.09.2018 13:45 11,9 C 44 % 1034,2 hPa 0,0 mm 17,1 km/h NO 40 0,0 C 6,7 C
25.09.2018 13:44 11,9 C 45 % 1034,2 hPa 0,0 mm 0,2 km/h N 350 0,4 C 11,9 C
25.09.2018 13:43 11,9 C 44 % 1034,3 hPa 0,0 mm 0,0 km/h N-NO 30 0,0 C 11,9 C
25.09.2018 13:42 11,9 C 44 % 1034,2 hPa 0,0 mm 1,2 km/h N 5 0,0 C 11,9 C
25.09.2018 13:41 11,9 C 43 % 1034,2 hPa 0,0 mm 0,9 km/h N-NO 24 -0,3 C 11,9 C
25.09.2018 13:40 11,9 C 43 % 1034,3 hPa 0,0 mm 1,8 km/h N-NW 346 -0,3 C 11,9 C
25.09.2018 13:39 11,9 C 43 % 1034,3 hPa 0,0 mm 0,6 km/h O-NO 65 -0,3 C 11,9 C
25.09.2018 13:38 12,0 C 43 % 1034,3 hPa 0,0 mm 7,1 km/h N-NO 29 -0,2 C 11,5 C
25.09.2018 13:37 12,0 C 44 % 1034,3 hPa 0,0 mm 11,9 km/h NO 34 0,1 C 8,9 C
25.09.2018 13:36 12,1 C 45 % 1034,3 hPa 0,0 mm 6,4 km/h NO 38 0,5 C 12,1 C
25.09.2018 13:35 12,1 C 45 % 1034,3 hPa 0,0 mm 13,8 km/h O 80 0,5 C 8,2 C
25.09.2018 13:34 12,1 C 44 % 1034,3 hPa 0,0 mm 2,3 km/h N-NO 32 0,2 C 12,1 C
25.09.2018 13:33 12,1 C 48 % 1034,3 hPa 0,0 mm 3,8 km/h O-NO 68 1,4 C 12,1 C
25.09.2018 13:32 12,1 C 46 % 1034,3 hPa 0,0 mm 10,7 km/h N 11 0,8 C 9,6 C
25.09.2018 13:31 12,2 C 42 % 1034,3 hPa 0,0 mm 3,8 km/h NO 40 -0,3 C 12,2 C
25.09.2018 13:30 12,2 C 42 % 1034,4 hPa 0,0 mm 13,4 km/h N 5 -0,3 C 8,4 C
25.09.2018 13:29 12,3 C 42 % 1034,3 hPa 0,0 mm 13,1 km/h N-NO 25 -0,2 C 8,7 C
25.09.2018 13:28 12,3 C 41 % 1034,4 hPa 0,0 mm 13,9 km/h N-NO 31 -0,6 C 8,4 C
25.09.2018 13:27 12,4 C 43 % 1034,4 hPa 0,0 mm 16,6 km/h N-NO 32 0,2 C 7,5 C
25.09.2018 13:26 12,4 C 43 % 1034,4 hPa 0,0 mm 15,9 km/h NO 45 0,2 C 7,7 C
25.09.2018 13:25 12,4 C 42 % 1034,3 hPa 0,0 mm 20,5 km/h N-NO 28 -0,1 C 6,2 C
25.09.2018 13:24 12,5 C 44 % 1034,4 hPa 0,0 mm 16,3 km/h N-NO 27 0,6 C 7,7 C
25.09.2018 13:23 12,5 C 43 % 1034,4 hPa 0,0 mm 19,8 km/h NO 38 0,3 C 6,6 C
25.09.2018 13:22 12,5 C 44 % 1034,4 hPa 0,0 mm 22,8 km/h N-NO 26 0,6 C 5,8 C
25.09.2018 13:21 12,4 C 46 % 1034,4 hPa 0,0 mm 4,6 km/h N 5 1,1 C 12,4 C
25.09.2018 13:20 12,4 C 43 % 1034,4 hPa 0,0 mm 0,0 km/h NO 39 0,2 C 12,4 C
25.09.2018 13:19 12,4 C 44 % 1034,4 hPa 0,0 mm 0,0 km/h N-NO 28 0,5 C 12,4 C
25.09.2018 13:18 12,4 C 46 % 1034,4 hPa 0,0 mm 0,0 km/h N-NO 23 1,1 C 12,4 C
25.09.2018 13:17 12,4 C 44 % 1034,4 hPa 0,0 mm 0,3 km/h NO 50 0,5 C 12,4 C
25.09.2018 13:16 12,4 C 43 % 1034,4 hPa 0,0 mm 1,2 km/h N-NO 19 0,2 C 12,4 C
25.09.2018 13:15 12,4 C 44 % 1034,4 hPa 0,0 mm 5,2 km/h N-NO 13 0,5 C 12,4 C
25.09.2018 13:14 12,5 C 42 % 1034,5 hPa 0,0 mm 12,0 km/h N-NO 24 -0,1 C 9,4 C
25.09.2018 13:13 12,4 C 44 % 1034,4 hPa 0,0 mm 16,2 km/h NO 49 0,5 C 7,6 C
25.09.2018 13:12 12,3 C 45 % 1034,4 hPa 0,0 mm 4,6 km/h N-NO 22 0,7 C 12,3 C
25.09.2018 13:11 12,2 C 44 % 1034,4 hPa 0,0 mm 12,8 km/h N-NO 33 0,3 C 8,7 C
25.09.2018 13:10 12,2 C 43 % 1034,4 hPa 0,0 mm 14,8 km/h NO 36 -0,0 C 7,9 C
25.09.2018 13:09 12,2 C 45 % 1034,4 hPa 0,0 mm 13,9 km/h NO 51 0,6 C 8,2 C
25.09.2018 13:08 12,2 C 43 % 1034,5 hPa 0,0 mm 6,3 km/h N-NO 32 -0,0 C 12,2 C
25.09.2018 13:07 12,2 C 43 % 1034,5 hPa 0,0 mm 1,9 km/h NO 49 -0,0 C 12,2 C
25.09.2018 13:06 12,2 C 45 % 1034,5 hPa 0,0 mm 7,7 km/h N-NO 23 0,6 C 11,3 C
25.09.2018 13:05 12,2 C 42 % 1034,5 hPa 0,0 mm 6,4 km/h O-NO 66 -0,3 C 12,2 C
25.09.2018 13:04 12,2 C 44 % 1034,5 hPa 0,0 mm 10,4 km/h NO 55 0,3 C 9,8 C
25.09.2018 13:03 12,2 C 43 % 1034,5 hPa 0,0 mm 13,2 km/h N-NO 20 -0,0 C 8,5 C
25.09.2018 13:02 12,2 C 45 % 1034,5 hPa 0,0 mm 7,3 km/h N-NO 32 0,6 C 11,6 C
25.09.2018 13:01 12,2 C 46 % 1034,5 hPa 0,0 mm 1,6 km/h O 101 0,9 C 12,2 C
25.09.2018 13:00 12,1 C 45 % 1034,5 hPa 0,0 mm 10,8 km/h N-NO 16 0,5 C 9,5 C
25.09.2018 12:59 12,1 C 44 % 1034,5 hPa 0,0 mm 1,5 km/h O 99 0,2 C 12,1 C
25.09.2018 12:58 12,0 C 45 % 1034,5 hPa 0,0 mm 3,0 km/h NO 42 0,4 C 12,0 C
25.09.2018 12:57 11,9 C 45 % 1034,5 hPa 0,0 mm 9,7 km/h NO 46 0,4 C 9,9 C
25.09.2018 12:56 11,9 C 48 % 1034,5 hPa 0,0 mm 3,5 km/h NO 44 1,2 C 11,9 C
25.09.2018 12:55 11,8 C 44 % 1034,5 hPa 0,0 mm 0,2 km/h N-NO 26 -0,0 C 11,8 C
25.09.2018 12:54 11,8 C 43 % 1034,5 hPa 0,0 mm 2,3 km/h O-SO 118 -0,4 C 11,8 C
25.09.2018 12:53 11,8 C 45 % 1034,5 hPa 0,0 mm 2,9 km/h NO 39 0,3 C 11,8 C
25.09.2018 12:52 11,9 C 43 % 1034,5 hPa 0,0 mm 13,3 km/h O 85 -0,3 C 8,1 C
25.09.2018 12:51 11,9 C 45 % 1034,5 hPa 0,0 mm 9,9 km/h O 92 0,4 C 9,7 C
25.09.2018 12:50 11,9 C 44 % 1034,5 hPa 0,0 mm 15,9 km/h O-NO 74 0,0 C 7,1 C
25.09.2018 12:49 12,0 C 43 % 1034,4 hPa 0,0 mm 5,2 km/h O 81 -0,2 C 12,0 C
25.09.2018 12:48 12,1 C 44 % 1034,5 hPa 0,0 mm 0,0 km/h O-NO 57 0,2 C 12,1 C
25.09.2018 12:47 12,1 C 42 % 1034,5 hPa 0,0 mm 0,2 km/h O-NO 72 -0,4 C 12,1 C
25.09.2018 12:46 12,2 C 44 % 1034,6 hPa 0,0 mm 3,2 km/h N-NO 23 0,3 C 12,2 C
25.09.2018 12:45 12,2 C 45 % 1034,5 hPa 0,0 mm 18,1 km/h O-NO 71 0,6 C 6,7 C
25.09.2018 12:44 12,1 C 45 % 1034,5 hPa 0,0 mm 9,0 km/h N 11 0,5 C 10,5 C
25.09.2018 12:43 12,0 C 46 % 1034,4 hPa 0,0 mm 17,1 km/h N-NO 28 0,7 C 6,8 C
25.09.2018 12:42 11,9 C 45 % 1034,5 hPa 0,0 mm 15,7 km/h N-NO 27 0,4 C 7,2 C
25.09.2018 12:41 11,8 C 46 % 1034,5 hPa 0,0 mm 17,9 km/h N 5 0,6 C 6,3 C
25.09.2018 12:40 11,8 C 47 % 1034,5 hPa 0,0 mm 16,0 km/h N-NO 26 0,9 C 6,9 C
25.09.2018 12:39 11,8 C 44 % 1034,4 hPa 0,0 mm 14,7 km/h N-NO 22 -0,0 C 7,4 C
25.09.2018 12:38 11,8 C 45 % 1034,5 hPa 0,0 mm 15,4 km/h N-NW 341 0,3 C 7,2 C
25.09.2018 12:37 11,8 C 44 % 1034,5 hPa 0,0 mm 8,6 km/h NO 34 -0,0 C 10,4 C
25.09.2018 12:36 11,9 C 44 % 1034,5 hPa 0,0 mm 16,0 km/h N 351 0,0 C 7,1 C
25.09.2018 12:35 11,9 C 45 % 1034,5 hPa 0,0 mm 17,6 km/h N 10 0,4 C 6,5 C
25.09.2018 12:34 11,9 C 44 % 1034,5 hPa 0,0 mm 23,7 km/h N-NO 19 0,0 C 4,7 C
25.09.2018 12:33 12,1 C 44 % 1034,5 hPa 0,0 mm 22,2 km/h N-NO 25 0,2 C 5,4 C
25.09.2018 12:32 12,2 C 45 % 1034,5 hPa 0,0 mm 21,9 km/h NO 35 0,6 C 5,6 C
25.09.2018 12:31 12,2 C 44 % 1034,4 hPa 0,0 mm 11,2 km/h NO 44 0,3 C 9,4 C
25.09.2018 12:30 12,2 C 45 % 1034,5 hPa 0,0 mm 8,8 km/h NO 40 0,6 C 10,7 C
25.09.2018 12:29 12,3 C 45 % 1034,5 hPa 0,0 mm 19,0 km/h O-NO 65 0,7 C 6,6 C
25.09.2018 12:28 12,4 C 45 % 1034,5 hPa 0,0 mm 14,3 km/h NO 39 0,8 C 8,3 C
25.09.2018 12:27 12,4 C 43 % 1034,4 hPa 0,0 mm 17,6 km/h NO 37 0,2 C 7,1 C
25.09.2018 12:26 12,5 C 45 % 1034,5 hPa 0,0 mm 19,2 km/h N-NO 23 0,9 C 6,8 C
25.09.2018 12:25 12,5 C 45 % 1034,4 hPa 0,0 mm 8,8 km/h NO 43 0,9 C 11,0 C
25.09.2018 12:24 12,4 C 47 % 1034,4 hPa 0,0 mm 6,0 km/h O-NO 59 1,4 C 12,4 C
25.09.2018 12:23 12,3 C 46 % 1034,4 hPa 0,0 mm 12,0 km/h N 5 1,0 C 9,2 C
25.09.2018 12:22 12,2 C 48 % 1034,4 hPa 0,0 mm 14,6 km/h N 355 1,5 C 8,0 C
25.09.2018 12:21 11,9 C 49 % 1034,4 hPa 0,0 mm 11,9 km/h N-NO 27 1,5 C 8,7 C
25.09.2018 12:20 11,7 C 52 % 1034,4 hPa 0,0 mm 6,2 km/h N-NO 12 2,2 C 11,7 C
25.09.2018 12:19 11,6 C 49 % 1034,4 hPa 0,0 mm 3,8 km/h NO 34 1,3 C 11,6 C
25.09.2018 12:18 11,4 C 49 % 1034,4 hPa 0,0 mm 10,1 km/h N-NO 33 1,1 C 9,1 C
25.09.2018 12:17 11,3 C 47 % 1034,4 hPa 0,0 mm 2,1 km/h N 5 0,4 C 11,3 C
25.09.2018 12:16 11,3 C 46 % 1034,5 hPa 0,0 mm 1,5 km/h NO 53 0,1 C 11,3 C
25.09.2018 12:15 11,3 C 49 % 1034,5 hPa 0,0 mm 0,4 km/h NO 43 1,0 C 11,3 C
25.09.2018 12:14 11,3 C 48 % 1034,5 hPa 0,0 mm 0,3 km/h NO 38 0,7 C 11,3 C
25.09.2018 12:13 11,3 C 49 % 1034,4 hPa 0,0 mm 0,1 km/h N-NO 27 1,0 C 11,3 C
25.09.2018 12:12 11,3 C 50 % 1034,5 hPa 0,0 mm 5,2 km/h NO 36 1,3 C 11,3 C
25.09.2018 12:11 11,3 C 49 % 1034,5 hPa 0,0 mm 5,2 km/h NO 38 1,0 C 11,3 C
25.09.2018 12:10 11,3 C 45 % 1034,5 hPa 0,0 mm 5,2 km/h NO 44 -0,2 C 11,3 C
25.09.2018 12:09 11,3 C 47 % 1034,4 hPa 0,0 mm 8,2 km/h O-NO 63 0,4 C 10,1 C
25.09.2018 12:08 11,3 C 47 % 1034,5 hPa 0,0 mm 6,2 km/h N-NO 14 0,4 C 11,3 C
25.09.2018 12:07 11,2 C 49 % 1034,5 hPa 0,0 mm 13,6 km/h N 5 0,9 C 7,2 C
25.09.2018 12:06 11,1 C 50 % 1034,5 hPa 0,0 mm 6,2 km/h N 350 1,1 C 11,1 C
25.09.2018 12:05 11,0 C 51 % 1034,5 hPa 0,0 mm 6,4 km/h NO 38 1,3 C 11,0 C
25.09.2018 12:04 10,9 C 48 % 1034,5 hPa 0,0 mm 8,3 km/h N 5 0,3 C 9,6 C
25.09.2018 12:03 10,9 C 50 % 1034,5 hPa 0,0 mm 2,1 km/h NW 310 0,9 C 10,9 C
25.09.2018 12:02 10,8 C 50 % 1034,5 hPa 0,0 mm 1,1 km/h O-NO 57 0,8 C 10,8 C
25.09.2018 12:01 10,8 C 46 % 1034,5 hPa 0,0 mm 0,2 km/h O 87 -0,3 C 10,8 C
25.09.2018 12:00 10,8 C 47 % 1034,6 hPa 0,0 mm 2,7 km/h O-SO 114 -0,1 C 10,8 C
25.09.2018 11:59 10,8 C 47 % 1034,5 hPa 0,0 mm 7,5 km/h O-NO 66 -0,1 C 10,0 C
25.09.2018 11:58 10,8 C 49 % 1034,5 hPa 0,0 mm 7,6 km/h N-NO 20 0,5 C 10,0 C
25.09.2018 11:57 10,8 C 48 % 1034,5 hPa 0,0 mm 10,3 km/h NO 34 0,2 C 8,3 C
25.09.2018 11:56 10,8 C 47 % 1034,5 hPa 0,0 mm 10,8 km/h N-NO 32 -0,1 C 8,0 C
25.09.2018 11:55 10,8 C 47 % 1034,6 hPa 0,0 mm 3,6 km/h N-NO 33 -0,1 C 10,8 C
25.09.2018 11:54 10,8 C 48 % 1034,5 hPa 0,0 mm 1,9 km/h N-NO 12 0,2 C 10,8 C
25.09.2018 11:53 10,8 C 47 % 1034,5 hPa 0,0 mm 3,6 km/h N 5 -0,1 C 10,8 C
25.09.2018 11:52 10,8 C 48 % 1034,5 hPa 0,0 mm 0,0 km/h N 9 0,2 C 10,8 C
25.09.2018 11:51 10,8 C 47 % 1034,5 hPa 0,0 mm 0,3 km/h O 83 -0,1 C 10,8 C
25.09.2018 11:50 10,7 C 46 % 1034,5 hPa 0,0 mm 1,1 km/h N-NO 19 -0,4 C 10,7 C
25.09.2018 11:49 10,8 C 46 % 1034,5 hPa 0,0 mm 6,7 km/h NO 38 -0,3 C 10,6 C
25.09.2018 11:48 10,8 C 46 % 1034,4 hPa 0,0 mm 1,1 km/h N-NO 22 -0,3 C 10,8 C
25.09.2018 11:47 10,8 C 46 % 1034,4 hPa 0,0 mm 9,5 km/h N 5 -0,3 C 8,8 C
25.09.2018 11:46 10,8 C 47 % 1034,5 hPa 0,0 mm 6,0 km/h NO 44 -0,1 C 10,8 C
25.09.2018 11:45 10,8 C 46 % 1034,4 hPa 0,0 mm 4,5 km/h O-NO 63 -0,3 C 10,8 C
25.09.2018 11:44 10,8 C 46 % 1034,4 hPa 0,0 mm 11,9 km/h N-NO 23 -0,3 C 7,5 C
25.09.2018 11:43 10,9 C 48 % 1034,4 hPa 0,0 mm 13,1 km/h NO 42 0,3 C 7,0 C
25.09.2018 11:42 10,9 C 47 % 1034,4 hPa 0,0 mm 9,8 km/h N-NO 19 0,0 C 8,7 C
25.09.2018 11:41 10,9 C 47 % 1034,4 hPa 0,0 mm 9,7 km/h O-NO 59 0,0 C 8,8 C
25.09.2018 11:40 10,9 C 48 % 1034,5 hPa 0,0 mm 10,1 km/h NO 48 0,3 C 8,5 C
25.09.2018 11:39 10,9 C 48 % 1034,4 hPa 0,0 mm 3,2 km/h NO 36 0,3 C 10,9 C
25.09.2018 11:38 10,9 C 48 % 1034,4 hPa 0,0 mm 6,4 km/h N-NO 16 0,3 C 10,9 C
25.09.2018 11:37 10,9 C 48 % 1034,4 hPa 0,0 mm 6,6 km/h NO 46 0,3 C 10,8 C
25.09.2018 11:36 10,9 C 48 % 1034,4 hPa 0,0 mm 1,1 km/h N-NO 19 0,3 C 10,9 C
25.09.2018 11:35 10,9 C 49 % 1034,4 hPa 0,0 mm 3,2 km/h O 86 0,6 C 10,9 C
25.09.2018 11:34 10,9 C 47 % 1034,3 hPa 0,0 mm 9,9 km/h N-NO 18 0,0 C 8,6 C
25.09.2018 11:33 10,9 C 48 % 1034,4 hPa 0,0 mm 5,0 km/h N-NO 19 0,3 C 10,9 C
25.09.2018 11:32 10,9 C 50 % 1034,3 hPa 0,0 mm 4,4 km/h N-NO 26 0,9 C 10,9 C
25.09.2018 11:31 10,9 C 51 % 1034,2 hPa 0,0 mm 0,6 km/h N-NO 26 1,2 C 10,9 C
25.09.2018 11:30 10,9 C 49 % 1034,2 hPa 0,0 mm 0,0 km/h SO 125 0,6 C 10,9 C
25.09.2018 11:29 10,9 C 49 % 1034,2 hPa 0,0 mm 0,0 km/h SO 127 0,6 C 10,9 C
25.09.2018 11:28 10,9 C 48 % 1034,3 hPa 0,0 mm 0,0 km/h SO 127 0,3 C 10,9 C
25.09.2018 11:27 10,9 C 48 % 1034,2 hPa 0,0 mm 0,0 km/h N 11 0,3 C 10,9 C
25.09.2018 11:26 10,9 C 48 % 1034,2 hPa 0,0 mm 0,0 km/h N-NO 16 0,3 C 10,9 C
25.09.2018 11:25 11,0 C 49 % 1034,2 hPa 0,0 mm 0,1 km/h N-NO 31 0,7 C 11,0 C
25.09.2018 11:24 11,0 C 48 % 1034,1 hPa 0,0 mm 6,0 km/h N-NO 15 0,4 C 11,0 C
25.09.2018 11:23 11,1 C 48 % 1034,0 hPa 0,0 mm 16,0 km/h N 360 0,5 C 6,1 C
25.09.2018 11:22 11,1 C 47 % 1034,0 hPa 0,0 mm 9,8 km/h N 350 0,2 C 8,9 C
25.09.2018 11:21 11,1 C 48 % 1034,0 hPa 0,0 mm 4,3 km/h NW 321 0,5 C 11,1 C
25.09.2018 11:20 11,1 C 46 % 1034,0 hPa 0,0 mm 6,0 km/h W-NW 294 -0,1 C 11,1 C
25.09.2018 11:19 11,2 C 47 % 1034,0 hPa 0,0 mm 9,7 km/h NW 318 0,3 C 9,1 C
25.09.2018 11:18 11,2 C 45 % 1034,0 hPa 0,0 mm 11,7 km/h N 355 -0,3 C 8,0 C
25.09.2018 11:17 11,2 C 44 % 1034,0 hPa 0,0 mm 10,6 km/h NW 314 -0,6 C 8,6 C
25.09.2018 11:16 11,2 C 46 % 1034,0 hPa 0,0 mm 14,7 km/h NW 308 0,0 C 6,7 C
25.09.2018 11:15 11,2 C 46 % 1034,0 hPa 0,0 mm 18,4 km/h N-NO 28 0,0 C 5,4 C
25.09.2018 11:14 11,1 C 45 % 1034,0 hPa 0,0 mm 19,6 km/h N 355 -0,4 C 4,8 C
25.09.2018 11:13 11,0 C 48 % 1034,0 hPa 0,0 mm 17,2 km/h N-NW 348 0,4 C 5,5 C
25.09.2018 11:12 10,9 C 49 % 1034,0 hPa 0,0 mm 12,6 km/h N-NO 25 0,6 C 7,3 C
25.09.2018 11:11 10,8 C 49 % 1034,0 hPa 0,0 mm 2,8 km/h NO 52 0,5 C 10,8 C
25.09.2018 11:10 10,8 C 50 % 1034,0 hPa 0,0 mm 6,8 km/h NO 40 0,8 C 10,5 C
25.09.2018 11:09 10,8 C 50 % 1034,0 hPa 0,0 mm 14,3 km/h N-NW 333 0,8 C 6,4 C
25.09.2018 11:08 10,8 C 49 % 1034,0 hPa 0,0 mm 12,4 km/h NO 34 0,5 C 7,2 C
25.09.2018 11:07 10,8 C 49 % 1034,0 hPa 0,0 mm 9,9 km/h N-NW 328 0,5 C 8,5 C
25.09.2018 11:06 10,8 C 48 % 1034,0 hPa 0,0 mm 10,3 km/h N-NW 342 0,2 C 8,3 C
25.09.2018 11:05 10,8 C 47 % 1033,9 hPa 0,0 mm 9,1 km/h N-NW 344 -0,1 C 9,0 C
25.09.2018 11:04 10,9 C 48 % 1034,0 hPa 0,0 mm 7,0 km/h N 360 0,3 C 10,5 C
25.09.2018 11:03 10,9 C 48 % 1034,0 hPa 0,0 mm 5,0 km/h N-NW 336 0,3 C 10,9 C
25.09.2018 11:02 10,9 C 47 % 1034,0 hPa 0,0 mm 5,5 km/h N 5 0,0 C 10,9 C
25.09.2018 11:01 11,0 C 45 % 1034,0 hPa 0,0 mm 14,9 km/h N-NW 335 -0,5 C 6,4 C
25.09.2018 11:00 11,1 C 44 % 1034,0 hPa 0,0 mm 18,2 km/h N-NW 336 -0,7 C 5,3 C
25.09.2018 10:59 11,2 C 46 % 1033,9 hPa 0,0 mm 15,4 km/h N-NW 333 0,0 C 6,4 C
25.09.2018 10:58 11,2 C 45 % 1033,9 hPa 0,0 mm 16,5 km/h N-NW 344 -0,3 C 6,0 C
25.09.2018 10:57 11,3 C 45 % 1033,9 hPa 0,0 mm 21,4 km/h N-NW 328 -0,2 C 4,6 C
25.09.2018 10:56 11,3 C 46 % 1033,9 hPa 0,0 mm 20,1 km/h NW 313 0,1 C 4,9 C
25.09.2018 10:55 11,4 C 45 % 1033,9 hPa 0,0 mm 21,3 km/h NW 313 -0,1 C 4,7 C
25.09.2018 10:54 11,4 C 47 % 1033,9 hPa 0,0 mm 10,9 km/h NW 306 0,5 C 8,7 C
25.09.2018 10:53 11,3 C 47 % 1033,9 hPa 0,0 mm 12,6 km/h N-NW 335 0,4 C 7,7 C
25.09.2018 10:52 11,3 C 47 % 1033,8 hPa 0,0 mm 18,2 km/h NW 306 0,4 C 5,5 C
25.09.2018 10:51 11,3 C 48 % 1033,8 hPa 0,0 mm 16,1 km/h NW 304 0,7 C 6,3 C
25.09.2018 10:50 11,2 C 49 % 1033,7 hPa 0,0 mm 14,0 km/h W-NW 292 0,9 C 7,0 C
25.09.2018 10:49 11,2 C 46 % 1033,8 hPa 0,0 mm 15,8 km/h N-NW 338 0,0 C 6,3 C
25.09.2018 10:48 11,2 C 46 % 1033,7 hPa 0,0 mm 15,0 km/h NW 316 0,0 C 6,6 C
25.09.2018 10:47 11,3 C 47 % 1033,7 hPa 0,0 mm 11,6 km/h W-NW 303 0,4 C 8,2 C
25.09.2018 10:46 11,2 C 46 % 1033,7 hPa 0,0 mm 12,0 km/h N 5 0,0 C 7,9 C
25.09.2018 10:45 11,2 C 46 % 1033,6 hPa 0,0 mm 16,5 km/h NW 321 0,0 C 6,0 C
25.09.2018 10:44 11,2 C 48 % 1033,6 hPa 0,0 mm 23,1 km/h N-NW 348 0,6 C 3,9 C
25.09.2018 10:43 11,2 C 46 % 1033,6 hPa 0,0 mm 24,2 km/h N 355 0,0 C 3,7 C
25.09.2018 10:42 11,2 C 47 % 1033,6 hPa 0,0 mm 17,8 km/h NW 304 0,3 C 5,6 C
25.09.2018 10:41 11,2 C 47 % 1033,7 hPa 0,0 mm 16,9 km/h N-NW 330 0,3 C 5,9 C
25.09.2018 10:40 11,2 C 48 % 1033,7 hPa 0,0 mm 15,8 km/h NW 317 0,6 C 6,3 C
25.09.2018 10:39 11,1 C 47 % 1033,6 hPa 0,0 mm 21,0 km/h W-NW 297 0,2 C 4,4 C
25.09.2018 10:38 11,1 C 49 % 1033,6 hPa 0,0 mm 24,1 km/h N 350 0,8 C 3,6 C
25.09.2018 10:37 10,9 C 51 % 1033,6 hPa 0,0 mm 19,6 km/h N-NW 336 1,2 C 4,6 C
25.09.2018 10:36 10,8 C 48 % 1033,6 hPa 0,0 mm 16,8 km/h N-NW 337 0,2 C 5,4 C
25.09.2018 10:35 10,7 C 50 % 1033,5 hPa 0,0 mm 19,6 km/h NW 317 0,7 C 4,3 C
25.09.2018 10:34 10,7 C 49 % 1033,5 hPa 0,0 mm 15,9 km/h NW 319 0,4 C 5,6 C
25.09.2018 10:33 10,6 C 48 % 1033,5 hPa 0,0 mm 17,1 km/h N 355 0,1 C 5,0 C
25.09.2018 10:32 10,6 C 47 % 1033,5 hPa 0,0 mm 20,9 km/h W-NW 301 -0,2 C 3,8 C
25.09.2018 10:31 10,5 C 48 % 1033,6 hPa 0,0 mm 25,0 km/h NW 312 -0,0 C 2,5 C
25.09.2018 10:30 10,5 C 49 % 1033,5 hPa 0,0 mm 23,3 km/h NW 311 0,2 C 3,0 C
25.09.2018 10:29 10,5 C 48 % 1033,5 hPa 0,0 mm 22,8 km/h NW 321 -0,0 C 3,1 C
25.09.2018 10:28 10,6 C 48 % 1033,4 hPa 0,0 mm 15,6 km/h NW 310 0,1 C 5,6 C
25.09.2018 10:27 10,6 C 47 % 1033,5 hPa 0,0 mm 15,0 km/h N-NW 344 -0,2 C 5,9 C
25.09.2018 10:26 10,6 C 49 % 1033,5 hPa 0,0 mm 17,6 km/h N-NW 330 0,3 C 4,9 C
25.09.2018 10:25 10,6 C 49 % 1033,5 hPa 0,0 mm 17,6 km/h N 5 0,3 C 4,9 C
25.09.2018 10:24 10,6 C 47 % 1033,5 hPa 0,0 mm 18,7 km/h N 350 -0,2 C 4,5 C
25.09.2018 10:23 10,7 C 49 % 1033,5 hPa 0,0 mm 19,2 km/h NW 316 0,4 C 4,4 C
25.09.2018 10:22 10,7 C 48 % 1033,4 hPa 0,0 mm 23,8 km/h N-NW 331 0,1 C 3,1 C
25.09.2018 10:21 10,7 C 49 % 1033,4 hPa 0,0 mm 20,8 km/h NW 325 0,4 C 3,9 C
25.09.2018 10:20 10,7 C 50 % 1033,4 hPa 0,0 mm 21,9 km/h NW 315 0,7 C 3,6 C
25.09.2018 10:19 10,7 C 49 % 1033,4 hPa 0,0 mm 24,7 km/h NW 316 0,4 C 2,9 C
25.09.2018 10:18 10,8 C 48 % 1033,5 hPa 0,0 mm 19,5 km/h N-NW 347 0,2 C 4,5 C
25.09.2018 10:17 10,8 C 48 % 1033,4 hPa 0,0 mm 24,2 km/h NW 311 0,2 C 3,1 C
25.09.2018 10:16 10,8 C 48 % 1033,4 hPa 0,0 mm 23,2 km/h NW 315 0,2 C 3,4 C
25.09.2018 10:15 10,8 C 47 % 1033,4 hPa 0,0 mm 33,6 km/h NW 319 -0,1 C 1,1 C
25.09.2018 10:14 10,8 C 50 % 1033,5 hPa 0,0 mm 24,2 km/h NW 320 0,8 C 3,1 C
25.09.2018 10:13 10,8 C 50 % 1033,4 hPa 0,0 mm 25,1 km/h N-NW 346 0,8 C 2,9 C
25.09.2018 10:12 10,8 C 50 % 1033,4 hPa 0,0 mm 20,0 km/h N-NW 348 0,8 C 4,3 C
25.09.2018 10:11 10,8 C 50 % 1033,4 hPa 0,0 mm 20,5 km/h NW 313 0,8 C 4,2 C
25.09.2018 10:10 10,7 C 50 % 1033,4 hPa 0,0 mm 28,2 km/h NW 317 0,7 C 2,0 C
25.09.2018 10:09 10,7 C 50 % 1033,4 hPa 0,0 mm 31,1 km/h N 355 0,7 C 1,4 C
25.09.2018 10:08 10,6 C 50 % 1033,3 hPa 0,0 mm 26,3 km/h N-NW 330 0,6 C 2,3 C
25.09.2018 10:07 10,5 C 50 % 1033,4 hPa 0,0 mm 28,2 km/h NW 311 0,5 C 1,7 C
25.09.2018 10:06 10,4 C 51 % 1033,4 hPa 0,0 mm 26,0 km/h NW 315 0,7 C 2,1 C
25.09.2018 10:05 10,4 C 51 % 1033,3 hPa 0,0 mm 17,6 km/h N-NW 336 0,7 C 4,6 C
25.09.2018 10:04 10,4 C 49 % 1033,3 hPa 0,0 mm 18,1 km/h NW 314 0,2 C 4,4 C
25.09.2018 10:03 10,4 C 51 % 1033,4 hPa 0,0 mm 16,9 km/h NW 309 0,7 C 4,9 C
25.09.2018 10:02 10,5 C 51 % 1033,3 hPa 0,0 mm 15,6 km/h N-NW 331 0,8 C 5,5 C
25.09.2018 10:01 10,5 C 51 % 1033,3 hPa 0,0 mm 19,6 km/h N 11 0,8 C 4,1 C
25.09.2018 10:00 10,6 C 50 % 1033,3 hPa 0,0 mm 25,9 km/h N-NW 340 0,6 C 2,4 C
25.09.2018 09:59 10,6 C 49 % 1033,3 hPa 0,0 mm 29,6 km/h NW 317 0,3 C 1,6 C
25.09.2018 09:58 10,7 C 50 % 1033,2 hPa 0,0 mm 25,2 km/h N-NW 348 0,7 C 2,7 C
25.09.2018 09:57 10,8 C 49 % 1033,2 hPa 0,0 mm 23,8 km/h N-NW 341 0,5 C 3,2 C
25.09.2018 09:56 10,8 C 50 % 1033,2 hPa 0,0 mm 26,8 km/h NW 313 0,8 C 2,5 C
25.09.2018 09:55 10,8 C 51 % 1033,2 hPa 0,0 mm 21,4 km/h N 350 1,1 C 3,9 C
25.09.2018 09:54 10,9 C 50 % 1033,2 hPa 0,0 mm 21,3 km/h N-NW 340 0,9 C 4,1 C
25.09.2018 09:53 10,9 C 50 % 1033,1 hPa 0,0 mm 25,1 km/h NW 306 0,9 C 3,0 C
25.09.2018 09:52 10,9 C 51 % 1033,1 hPa 0,0 mm 21,8 km/h NW 319 1,2 C 3,9 C
25.09.2018 09:51 10,9 C 51 % 1033,1 hPa 0,0 mm 21,3 km/h NW 317 1,2 C 4,1 C
25.09.2018 09:50 11,0 C 48 % 1033,0 hPa 0,0 mm 19,9 km/h N 355 0,4 C 4,6 C
25.09.2018 09:49 11,0 C 52 % 1033,1 hPa 0,0 mm 30,8 km/h N-NW 346 1,5 C 1,9 C
25.09.2018 09:48 10,9 C 53 % 1033,0 hPa 0,0 mm 29,8 km/h N 360 1,7 C 2,0 C
25.09.2018 09:47 10,9 C 53 % 1033,0 hPa 0,0 mm 24,4 km/h N-NO 19 1,7 C 3,2 C
25.09.2018 09:46 10,8 C 52 % 1032,9 hPa 0,0 mm 28,5 km/h N-NW 348 1,3 C 2,1 C
25.09.2018 09:45 10,8 C 53 % 1032,9 hPa 0,0 mm 18,2 km/h NW 325 1,6 C 4,9 C
25.09.2018 09:44 10,8 C 52 % 1033,0 hPa 0,0 mm 21,1 km/h N-NW 340 1,3 C 4,0 C
25.09.2018 09:43 10,8 C 52 % 1033,0 hPa 0,0 mm 27,0 km/h W-NW 292 1,3 C 2,4 C
25.09.2018 09:42 10,8 C 52 % 1033,0 hPa 0,0 mm 25,8 km/h N-NW 334 1,3 C 2,7 C
25.09.2018 09:41 10,8 C 53 % 1033,0 hPa 0,0 mm 22,7 km/h W-NW 302 1,6 C 3,5 C
25.09.2018 09:40 10,9 C 52 % 1033,0 hPa 0,0 mm 19,3 km/h W-NW 298 1,4 C 4,7 C
25.09.2018 09:39 10,9 C 53 % 1032,9 hPa 0,0 mm 24,3 km/h N 360 1,7 C 3,2 C
25.09.2018 09:38 10,9 C 53 % 1032,9 hPa 0,0 mm 24,1 km/h N 5 1,7 C 3,3 C
25.09.2018 09:37 10,9 C 56 % 1032,8 hPa 0,0 mm 27,8 km/h N 360 2,5 C 2,4 C
25.09.2018 09:36 10,9 C 55 % 1032,9 hPa 0,0 mm 20,3 km/h N-NO 13 2,2 C 4,4 C
25.09.2018 09:35 10,8 C 55 % 1032,9 hPa 0,0 mm 17,0 km/h N-NW 340 2,1 C 5,3 C
25.09.2018 09:34 10,8 C 54 % 1032,9 hPa 0,0 mm 24,5 km/h NW 325 1,9 C 3,0 C
25.09.2018 09:33 10,8 C 53 % 1032,8 hPa 0,0 mm 25,9 km/h N 5 1,6 C 2,7 C
25.09.2018 09:32 10,8 C 53 % 1032,9 hPa 0,0 mm 29,9 km/h N-NW 340 1,6 C 1,8 C
25.09.2018 09:31 10,8 C 55 % 1032,8 hPa 0,0 mm 21,1 km/h N-NW 345 2,1 C 4,0 C
25.09.2018 09:30 10,7 C 56 % 1032,9 hPa 0,0 mm 23,9 km/h N-NW 331 2,3 C 3,1 C
25.09.2018 09:29 10,7 C 56 % 1032,9 hPa 0,0 mm 23,3 km/h N 355 2,3 C 3,2 C
25.09.2018 09:28 10,6 C 57 % 1032,9 hPa 0,0 mm 21,9 km/h N 5 2,4 C 3,5 C
25.09.2018 09:27 10,6 C 55 % 1032,8 hPa 0,0 mm 21,9 km/h N 5 1,9 C 3,5 C
25.09.2018 09:26 10,6 C 54 % 1032,8 hPa 0,0 mm 23,9 km/h N 355 1,7 C 2,9 C
25.09.2018 09:25 10,7 C 54 % 1032,8 hPa 0,0 mm 24,7 km/h N 355 1,8 C 2,9 C
25.09.2018 09:24 10,7 C 56 % 1032,9 hPa 0,0 mm 29,0 km/h N-NW 340 2,3 C 1,9 C
25.09.2018 09:23 10,7 C 58 % 1032,8 hPa 0,0 mm 22,3 km/h N 10 2,8 C 3,5 C
25.09.2018 09:22 10,7 C 57 % 1032,9 hPa 0,0 mm 19,4 km/h N-NW 338 2,5 C 4,4 C
25.09.2018 09:21 10,7 C 59 % 1033,0 hPa 0,0 mm 20,7 km/h N-NW 329 3,0 C 4,0 C
25.09.2018 09:20 10,8 C 59 % 1032,9 hPa 0,0 mm 23,8 km/h N 355 3,1 C 3,2 C
25.09.2018 09:19 10,7 C 59 % 1032,8 hPa 0,0 mm 26,3 km/h N 355 3,0 C 2,5 C
25.09.2018 09:18 10,7 C 61 % 1032,9 hPa 0,0 mm 26,0 km/h NW 325 3,5 C 2,5 C
25.09.2018 09:17 10,7 C 62 % 1032,9 hPa 0,0 mm 17,0 km/h W-NW 302 3,7 C 5,2 C
25.09.2018 09:16 10,7 C 63 % 1033,0 hPa 0,0 mm 16,9 km/h N 9 3,9 C 5,2 C
25.09.2018 09:15 10,7 C 63 % 1032,9 hPa 0,0 mm 14,3 km/h N 355 3,9 C 6,3 C
25.09.2018 09:14 10,7 C 64 % 1032,8 hPa 0,0 mm 10,7 km/h N-NW 336 4,2 C 8,0 C
25.09.2018 09:13 10,7 C 66 % 1032,8 hPa 0,0 mm 2,6 km/h N-NO 30 4,6 C 10,7 C
25.09.2018 09:12 10,6 C 66 % 1032,9 hPa 0,0 mm 2,3 km/h N-NO 19 4,5 C 10,6 C
25.09.2018 09:11 10,6 C 65 % 1032,8 hPa 0,0 mm 0,0 km/h NO 37 4,3 C 10,6 C
25.09.2018 09:10 10,4 C 65 % 1032,9 hPa 0,0 mm 2,5 km/h N 5 4,1 C 10,4 C
25.09.2018 09:09 10,4 C 67 % 1032,9 hPa 0,0 mm 3,0 km/h NO 38 4,5 C 10,4 C
25.09.2018 09:08 10,3 C 67 % 1032,8 hPa 0,0 mm 2,4 km/h N-NO 13 4,4 C 10,3 C
25.09.2018 09:07 10,3 C 68 % 1032,9 hPa 0,0 mm 1,1 km/h NO 38 4,7 C 10,3 C
25.09.2018 09:06 10,2 C 69 % 1032,8 hPa 0,0 mm 0,0 km/h N-NO 33 4,8 C 10,2 C
25.09.2018 09:05 10,2 C 68 % 1032,8 hPa 0,0 mm 0,0 km/h N 351 4,6 C 10,2 C
25.09.2018 09:04 10,1 C 69 % 1032,8 hPa 0,0 mm 0,0 km/h N-NW 342 4,7 C 10,1 C
25.09.2018 09:03 10,1 C 69 % 1032,8 hPa 0,0 mm 0,0 km/h N 5 4,7 C 10,1 C
25.09.2018 09:02 10,0 C 67 % 1032,8 hPa 0,0 mm 0,0 km/h N 5 4,2 C 10,0 C
25.09.2018 09:01 9,9 C 68 % 1032,7 hPa 0,0 mm 0,0 km/h N 5 4,3 C 9,9 C
25.09.2018 09:00 9,9 C 69 % 1032,7 hPa 0,0 mm 0,0 km/h N 360 4,5 C 9,9 C
25.09.2018 08:59 9,8 C 71 % 1032,7 hPa 0,0 mm 0,0 km/h O-NO 67 4,8 C 9,8 C
25.09.2018 08:58 9,8 C 72 % 1032,7 hPa 0,0 mm 0,0 km/h O-NO 67 5,0 C 9,8 C
25.09.2018 08:57 9,7 C 71 % 1032,7 hPa 0,0 mm 0,0 km/h O-NO 67 4,7 C 9,7 C
25.09.2018 08:56 9,6 C 72 % 1032,7 hPa 0,0 mm 0,0 km/h N-NO 18 4,8 C 9,6 C
25.09.2018 08:55 9,6 C 71 % 1032,7 hPa 0,0 mm 0,0 km/h N-NW 338 4,6 C 9,6 C
25.09.2018 08:54 9,6 C 72 % 1032,7 hPa 0,0 mm 0,0 km/h NW 321 4,8 C 9,6 C
25.09.2018 08:53 9,5 C 72 % 1032,7 hPa 0,0 mm 0,0 km/h N-NW 331 4,7 C 9,5 C
25.09.2018 08:52 9,5 C 73 % 1032,6 hPa 0,0 mm 0,0 km/h N-NW 331 4,9 C 9,5 C
25.09.2018 08:51 9,4 C 74 % 1032,7 hPa 0,0 mm 0,0 km/h N-NW 331 5,0 C 9,4 C
25.09.2018 08:50 9,4 C 74 % 1032,7 hPa 0,0 mm 0,0 km/h N-NW 331 5,0 C 9,4 C
25.09.2018 08:49 9,4 C 73 % 1032,6 hPa 0,0 mm 0,0 km/h N-NW 331 4,8 C 9,4 C
25.09.2018 08:48 9,3 C 74 % 1032,6 hPa 0,0 mm 0,0 km/h N-NW 331 4,9 C 9,3 C
25.09.2018 08:47 9,3 C 75 % 1032,6 hPa 0,0 mm 0,0 km/h N-NW 333 5,1 C 9,3 C
25.09.2018 08:46 9,2 C 75 % 1032,6 hPa 0,0 mm 0,0 km/h NW 324 5,0 C 9,2 C
25.09.2018 08:45 9,2 C 75 % 1032,6 hPa 0,0 mm 0,0 km/h NW 313 5,0 C 9,2 C
25.09.2018 08:44 9,1 C 75 % 1032,6 hPa 0,0 mm 0,0 km/h N-NW 338 4,9 C 9,1 C
25.09.2018 08:43 9,1 C 75 % 1032,6 hPa 0,0 mm 0,0 km/h N-NW 329 4,9 C 9,1 C
25.09.2018 08:42 9,0 C 75 % 1032,6 hPa 0,0 mm 0,0 km/h N-NW 329 4,8 C 9,0 C
25.09.2018 08:41 8,9 C 77 % 1032,6 hPa 0,0 mm 0,0 km/h N-NW 329 5,1 C 8,9 C
25.09.2018 08:40 8,9 C 77 % 1032,6 hPa 0,0 mm 0,0 km/h N-NW 329 5,1 C 8,9 C
25.09.2018 08:39 8,8 C 76 % 1032,6 hPa 0,0 mm 0,0 km/h N-NW 348 4,8 C 8,8 C
25.09.2018 08:38 8,8 C 77 % 1032,5 hPa 0,0 mm 0,0 km/h N-NW 348 5,0 C 8,8 C
25.09.2018 08:37 8,8 C 77 % 1032,4 hPa 0,0 mm 0,0 km/h N-NW 338 5,0 C 8,8 C
25.09.2018 08:36 8,7 C 78 % 1032,4 hPa 0,0 mm 0,0 km/h NW 318 5,1 C 8,7 C
25.09.2018 08:35 8,7 C 77 % 1032,4 hPa 0,0 mm 0,0 km/h N-NW 344 4,9 C 8,7 C
25.09.2018 08:34 8,6 C 76 % 1032,4 hPa 0,0 mm 0,0 km/h N 355 4,6 C 8,6 C
25.09.2018 08:33 8,6 C 78 % 1032,4 hPa 0,0 mm 0,0 km/h N 355 5,0 C 8,6 C
25.09.2018 08:32 8,5 C 77 % 1032,4 hPa 0,0 mm 0,0 km/h N 355 4,7 C 8,5 C
25.09.2018 08:31 8,4 C 77 % 1032,4 hPa 0,0 mm 0,0 km/h N 355 4,6 C 8,4 C
25.09.2018 08:30 8,4 C 77 % 1032,4 hPa 0,0 mm 0,0 km/h N-NO 26 4,6 C 8,4 C
25.09.2018 08:29 8,3 C 76 % 1032,4 hPa 0,0 mm 5,0 km/h N 5 4,3 C 8,3 C
25.09.2018 08:28 8,3 C 77 % 1032,4 hPa 0,0 mm 4,1 km/h N-NO 15 4,5 C 8,3 C
25.09.2018 08:27 8,3 C 77 % 1032,4 hPa 0,0 mm 0,0 km/h N-NW 331 4,5 C 8,3 C
25.09.2018 08:26 8,2 C 79 % 1032,3 hPa 0,0 mm 0,0 km/h N-NO 30 4,8 C 8,2 C
25.09.2018 08:25 8,2 C 78 % 1032,4 hPa 0,0 mm 1,1 km/h NO 43 4,6 C 8,2 C
25.09.2018 08:24 8,2 C 79 % 1032,4 hPa 0,0 mm 0,0 km/h N-NO 19 4,8 C 8,2 C
25.09.2018 08:23 8,1 C 79 % 1032,4 hPa 0,0 mm 1,5 km/h N-NO 16 4,7 C 8,1 C
25.09.2018 08:22 8,0 C 79 % 1032,4 hPa 0,0 mm 0,2 km/h N-NO 24 4,6 C 8,0 C
25.09.2018 08:21 8,0 C 79 % 1032,4 hPa 0,0 mm 2,7 km/h N-NO 24 4,6 C 8,0 C
25.09.2018 08:20 7,9 C 80 % 1032,4 hPa 0,0 mm 3,3 km/h N-NO 28 4,7 C 7,9 C
25.09.2018 08:19 7,9 C 79 % 1032,3 hPa 0,0 mm 2,3 km/h N 11 4,5 C 7,9 C
25.09.2018 08:18 7,8 C 79 % 1032,3 hPa 0,0 mm 3,4 km/h N-NO 22 4,4 C 7,8 C
25.09.2018 08:17 7,8 C 79 % 1032,3 hPa 0,0 mm 4,1 km/h N 350 4,4 C 7,8 C
25.09.2018 08:16 7,8 C 79 % 1032,3 hPa 0,0 mm 3,9 km/h NO 41 4,4 C 7,8 C
25.09.2018 08:15 7,7 C 80 % 1032,2 hPa 0,0 mm 0,0 km/h N 5 4,5 C 7,7 C
25.09.2018 08:14 7,7 C 79 % 1032,2 hPa 0,0 mm 0,0 km/h N 5 4,3 C 7,7 C
25.09.2018 08:13 7,7 C 80 % 1032,2 hPa 0,0 mm 0,7 km/h N 355 4,5 C 7,7 C
25.09.2018 08:12 7,7 C 80 % 1032,2 hPa 0,0 mm 2,3 km/h N 9 4,5 C 7,7 C
25.09.2018 08:11 7,6 C 81 % 1032,2 hPa 0,0 mm 2,7 km/h SO 136 4,6 C 7,6 C
25.09.2018 08:10 7,6 C 81 % 1032,2 hPa 0,0 mm 0,6 km/h N 355 4,6 C 7,6 C
25.09.2018 08:09 7,6 C 81 % 1032,2 hPa 0,0 mm 0,0 km/h N 5 4,6 C 7,6 C
25.09.2018 08:08 7,6 C 81 % 1032,2 hPa 0,0 mm 0,0 km/h N 5 4,6 C 7,6 C
25.09.2018 08:07 7,5 C 82 % 1032,2 hPa 0,0 mm 0,7 km/h N 5 4,6 C 7,5 C
25.09.2018 08:06 7,5 C 82 % 1032,1 hPa 0,0 mm 0,1 km/h N 5 4,6 C 7,5 C
25.09.2018 08:05 7,4 C 82 % 1032,1 hPa 0,0 mm 0,0 km/h N 5 4,5 C 7,4 C
25.09.2018 08:04 7,4 C 82 % 1032,1 hPa 0,0 mm 0,0 km/h N 5 4,5 C 7,4 C
25.09.2018 08:03 7,4 C 82 % 1032,1 hPa 0,0 mm 0,0 km/h N-NW 347 4,5 C 7,4 C
25.09.2018 08:02 7,3 C 82 % 1032,1 hPa 0,0 mm 0,0 km/h N-NW 347 4,4 C 7,3 C
25.09.2018 08:01 7,3 C 82 % 1032,1 hPa 0,0 mm 0,0 km/h N-NW 347 4,4 C 7,3 C
25.09.2018 08:00 7,3 C 82 % 1032,1 hPa 0,0 mm 0,0 km/h N-NW 347 4,4 C 7,3 C
25.09.2018 07:59 7,3 C 82 % 1032,1 hPa 0,0 mm 0,0 km/h N 11 4,4 C 7,3 C
25.09.2018 07:58 7,3 C 82 % 1032,1 hPa 0,0 mm 1,1 km/h N 11 4,4 C 7,3 C
25.09.2018 07:57 7,3 C 83 % 1032,1 hPa 0,0 mm 0,0 km/h N-NO 22 4,6 C 7,3 C
25.09.2018 07:56 7,3 C 82 % 1032,1 hPa 0,0 mm 0,0 km/h N-NO 19 4,4 C 7,3 C
25.09.2018 07:55 7,3 C 82 % 1032,0 hPa 0,0 mm 0,0 km/h N 10 4,4 C 7,3 C
25.09.2018 07:54 7,2 C 83 % 1032,0 hPa 0,0 mm 0,0 km/h N 10 4,5 C 7,2 C
25.09.2018 07:53 7,2 C 83 % 1032,0 hPa 0,0 mm 0,0 km/h N 10 4,5 C 7,2 C
25.09.2018 07:52 7,2 C 82 % 1032,0 hPa 0,0 mm 0,0 km/h N 10 4,3 C 7,2 C
25.09.2018 07:51 7,2 C 82 % 1032,0 hPa 0,0 mm 0,0 km/h N 10 4,3 C 7,2 C
25.09.2018 07:50 7,2 C 83 % 1032,0 hPa 0,0 mm 0,0 km/h N 9 4,5 C 7,2 C
25.09.2018 07:49 7,1 C 83 % 1032,0 hPa 0,0 mm 0,7 km/h O 101 4,4 C 7,1 C
25.09.2018 07:48 7,1 C 83 % 1031,9 hPa 0,0 mm 1,5 km/h N-NO 24 4,4 C 7,1 C
25.09.2018 07:47 7,0 C 83 % 1032,0 hPa 0,0 mm 1,2 km/h N-NO 24 4,3 C 7,0 C
25.09.2018 07:46 6,9 C 83 % 1032,0 hPa 0,0 mm 3,1 km/h N-NO 27 4,2 C 6,9 C
25.09.2018 07:45 6,9 C 84 % 1031,9 hPa 0,0 mm 2,9 km/h NO 51 4,4 C 6,9 C
25.09.2018 07:44 6,9 C 84 % 1031,9 hPa 0,0 mm 3,7 km/h O 94 4,4 C 6,9 C
25.09.2018 07:43 6,8 C 84 % 1031,9 hPa 0,0 mm 8,9 km/h O 100 4,3 C 4,8 C
25.09.2018 07:42 6,8 C 85 % 1031,9 hPa 0,0 mm 5,4 km/h O-SO 117 4,5 C 6,8 C
25.09.2018 07:41 6,8 C 85 % 1031,9 hPa 0,0 mm 3,0 km/h O-SO 109 4,5 C 6,8 C
25.09.2018 07:40 6,8 C 86 % 1031,9 hPa 0,0 mm 3,0 km/h O-NO 76 4,6 C 6,8 C
25.09.2018 07:39 6,8 C 86 % 1031,9 hPa 0,0 mm 0,0 km/h O-NO 70 4,6 C 6,8 C
25.09.2018 07:38 6,8 C 86 % 1032,0 hPa 0,0 mm 0,0 km/h N 5 4,6 C 6,8 C
25.09.2018 07:37 6,7 C 86 % 1032,0 hPa 0,0 mm 0,1 km/h N 5 4,5 C 6,7 C
25.09.2018 07:36 6,7 C 86 % 1031,9 hPa 0,0 mm 3,3 km/h N 5 4,5 C 6,7 C
25.09.2018 07:35 6,7 C 86 % 1031,8 hPa 0,0 mm 0,0 km/h NO 54 4,5 C 6,7 C
25.09.2018 07:34 6,6 C 86 % 1031,8 hPa 0,0 mm 0,0 km/h O 89 4,4 C 6,6 C
25.09.2018 07:33 6,6 C 86 % 1031,8 hPa 0,0 mm 0,0 km/h O 90 4,4 C 6,6 C
25.09.2018 07:32 6,6 C 86 % 1031,8 hPa 0,0 mm 0,0 km/h O 90 4,4 C 6,6 C
25.09.2018 07:31 6,6 C 86 % 1031,8 hPa 0,0 mm 0,0 km/h O 90 4,4 C 6,6 C
25.09.2018 07:30 6,6 C 87 % 1031,8 hPa 0,0 mm 0,0 km/h O 90 4,6 C 6,6 C
25.09.2018 07:29 6,5 C 87 % 1031,8 hPa 0,0 mm 0,0 km/h O 96 4,5 C 6,5 C
25.09.2018 07:28 6,5 C 87 % 1031,8 hPa 0,0 mm 0,1 km/h O-SO 116 4,5 C 6,5 C
25.09.2018 07:27 6,5 C 87 % 1031,8 hPa 0,0 mm 0,0 km/h S-SO 165 4,5 C 6,5 C
25.09.2018 07:26 6,4 C 87 % 1031,7 hPa 0,0 mm 0,0 km/h S 171 4,4 C 6,4 C
25.09.2018 07:25 6,4 C 87 % 1031,7 hPa 0,0 mm 0,0 km/h S 171 4,4 C 6,4 C
25.09.2018 07:24 6,4 C 87 % 1031,7 hPa 0,0 mm 0,0 km/h S-SO 153 4,4 C 6,4 C
25.09.2018 07:23 6,3 C 87 % 1031,7 hPa 0,0 mm 0,0 km/h S-SO 153 4,3 C 6,3 C
25.09.2018 07:22 6,3 C 87 % 1031,7 hPa 0,0 mm 0,0 km/h S-SO 153 4,3 C 6,3 C
25.09.2018 07:21 6,3 C 87 % 1031,7 hPa 0,0 mm 0,0 km/h S-SO 153 4,3 C 6,3 C
25.09.2018 07:20 6,3 C 87 % 1031,7 hPa 0,0 mm 0,0 km/h S-SO 148 4,3 C 6,3 C
25.09.2018 07:19 6,3 C 87 % 1031,7 hPa 0,0 mm 0,0 km/h O-SO 110 4,3 C 6,3 C
25.09.2018 07:18 6,3 C 87 % 1031,7 hPa 0,0 mm 0,0 km/h O-SO 110 4,3 C 6,3 C
25.09.2018 07:17 6,3 C 87 % 1031,7 hPa 0,0 mm 0,0 km/h O-SO 110 4,3 C 6,3 C
25.09.2018 07:16 6,3 C 87 % 1031,7 hPa 0,0 mm 0,0 km/h N-NW 336 4,3 C 6,3 C
25.09.2018 07:15 6,3 C 87 % 1031,8 hPa 0,0 mm 0,0 km/h N-NW 336 4,3 C 6,3 C
25.09.2018 07:14 6,3 C 87 % 1031,8 hPa 0,0 mm 0,0 km/h N-NW 336 4,3 C 6,3 C
25.09.2018 07:13 6,3 C 87 % 1031,7 hPa 0,0 mm 0,0 km/h N-NW 341 4,3 C 6,3 C
25.09.2018 07:12 6,3 C 87 % 1031,6 hPa 0,0 mm 0,0 km/h W-SW 244 4,3 C 6,3 C
25.09.2018 07:11 6,4 C 87 % 1031,6 hPa 0,0 mm 0,0 km/h W-SW 244 4,4 C 6,4 C
25.09.2018 07:10 6,4 C 86 % 1031,5 hPa 0,0 mm 0,0 km/h NO 47 4,2 C 6,4 C
25.09.2018 07:09 6,4 C 86 % 1031,5 hPa 0,0 mm 0,0 km/h NO 47 4,2 C 6,4 C
25.09.2018 07:08 6,4 C 86 % 1031,5 hPa 0,0 mm 0,0 km/h NO 47 4,2 C 6,4 C
25.09.2018 07:07 6,4 C 86 % 1031,5 hPa 0,0 mm 0,2 km/h NO 47 4,2 C 6,4 C
25.09.2018 07:06 6,4 C 86 % 1031,5 hPa 0,0 mm 0,0 km/h W 265 4,2 C 6,4 C
25.09.2018 07:05 6,4 C 86 % 1031,4 hPa 0,0 mm 0,0 km/h W 265 4,2 C 6,4 C
25.09.2018 07:04 6,4 C 86 % 1031,3 hPa 0,0 mm 0,0 km/h W 265 4,2 C 6,4 C
25.09.2018 07:03 6,4 C 85 % 1031,3 hPa 0,0 mm 0,0 km/h W 265 4,1 C 6,4 C
25.09.2018 07:02 6,4 C 85 % 1031,3 hPa 0,0 mm 0,0 km/h W 265 4,1 C 6,4 C
25.09.2018 07:01 6,4 C 85 % 1031,2 hPa 0,0 mm 0,0 km/h W 265 4,1 C 6,4 C
25.09.2018 07:00 6,4 C 85 % 1031,2 hPa 0,0 mm 0,0 km/h W 265 4,1 C 6,4 C
25.09.2018 06:59 6,4 C 85 % 1031,2 hPa 0,0 mm 0,0 km/h W 265 4,1 C 6,4 C
25.09.2018 06:58 6,5 C 84 % 1031,2 hPa 0,0 mm 0,0 km/h W 265 4,0 C 6,5 C
25.09.2018 06:57 6,5 C 84 % 1031,2 hPa 0,0 mm 0,0 km/h W 265 4,0 C 6,5 C
25.09.2018 06:56 6,6 C 84 % 1031,2 hPa 0,0 mm 0,0 km/h W 265 4,1 C 6,6 C
25.09.2018 06:55 6,6 C 84 % 1031,2 hPa 0,0 mm 0,0 km/h W 265 4,1 C 6,6 C
25.09.2018 06:54 6,7 C 84 % 1031,2 hPa 0,0 mm 0,0 km/h W 265 4,2 C 6,7 C
25.09.2018 06:53 6,7 C 84 % 1031,2 hPa 0,0 mm 0,9 km/h W 265 4,2 C 6,7 C
25.09.2018 06:52 6,8 C 83 % 1031,2 hPa 0,0 mm 0,0 km/h W 265 4,1 C 6,8 C
25.09.2018 06:51 6,8 C 83 % 1031,2 hPa 0,0 mm 0,0 km/h W 265 4,1 C 6,8 C
25.09.2018 06:50 6,8 C 83 % 1031,2 hPa 0,0 mm 0,0 km/h W 265 4,1 C 6,8 C
25.09.2018 06:49 6,9 C 83 % 1031,2 hPa 0,0 mm 0,0 km/h W 265 4,2 C 6,9 C
25.09.2018 06:48 7,0 C 83 % 1031,2 hPa 0,0 mm 0,0 km/h W 265 4,3 C 7,0 C
25.09.2018 06:47 7,1 C 82 % 1031,1 hPa 0,0 mm 0,0 km/h W 265 4,2 C 7,1 C
25.09.2018 06:46 7,1 C 82 % 1031,2 hPa 0,0 mm 0,0 km/h W 265 4,2 C 7,1 C
25.09.2018 06:45 7,2 C 82 % 1031,2 hPa 0,0 mm 0,0 km/h W 265 4,3 C 7,2 C
25.09.2018 06:44 7,2 C 82 % 1031,1 hPa 0,0 mm 0,0 km/h W 265 4,3 C 7,2 C
25.09.2018 06:43 7,3 C 82 % 1031,1 hPa 0,0 mm 0,0 km/h W 265 4,4 C 7,3 C
25.09.2018 06:42 7,3 C 82 % 1031,1 hPa 0,0 mm 0,0 km/h W 265 4,4 C 7,3 C
25.09.2018 06:41 7,3 C 81 % 1031,0 hPa 0,0 mm 0,0 km/h W 265 4,3 C 7,3 C
25.09.2018 06:40 7,3 C 81 % 1031,0 hPa 0,0 mm 0,3 km/h W 265 4,3 C 7,3 C
25.09.2018 06:39 7,3 C 81 % 1031,0 hPa 0,0 mm 1,1 km/h W 265 4,3 C 7,3 C
25.09.2018 06:38 7,3 C 81 % 1031,0 hPa 0,0 mm 3,0 km/h SW 228 4,3 C 7,3 C
25.09.2018 06:37 7,3 C 81 % 1031,0 hPa 0,0 mm 1,4 km/h SW 228 4,3 C 7,3 C
25.09.2018 06:36 7,2 C 81 % 1031,0 hPa 0,0 mm 1,7 km/h SW 231 4,2 C 7,2 C
25.09.2018 06:35 7,2 C 81 % 1031,0 hPa 0,0 mm 2,4 km/h SW 231 4,2 C 7,2 C
25.09.2018 06:34 7,2 C 81 % 1031,0 hPa 0,0 mm 2,9 km/h W-SW 239 4,2 C 7,2 C
25.09.2018 06:33 7,1 C 81 % 1031,0 hPa 0,0 mm 3,3 km/h W-SW 239 4,1 C 7,1 C
25.09.2018 06:32 7,0 C 81 % 1031,0 hPa 0,0 mm 5,7 km/h SW 233 4,0 C 7,0 C
25.09.2018 06:31 6,9 C 82 % 1031,0 hPa 0,0 mm 6,0 km/h SW 234 4,0 C 6,9 C
25.09.2018 06:30 6,9 C 83 % 1030,9 hPa 0,0 mm 8,0 km/h SW 232 4,2 C 5,6 C
25.09.2018 06:29 6,8 C 83 % 1030,9 hPa 0,0 mm 6,8 km/h SW 233 4,1 C 6,5 C
25.09.2018 06:28 6,8 C 83 % 1030,9 hPa 0,0 mm 6,6 km/h SW 221 4,1 C 6,7 C
25.09.2018 06:27 6,8 C 83 % 1030,9 hPa 0,0 mm 6,5 km/h W-SW 239 4,1 C 6,7 C
25.09.2018 06:26 6,8 C 83 % 1030,8 hPa 0,0 mm 5,4 km/h SW 225 4,1 C 6,8 C
25.09.2018 06:25 6,8 C 83 % 1030,8 hPa 0,0 mm 5,2 km/h SW 225 4,1 C 6,8 C
25.09.2018 06:24 6,8 C 83 % 1030,8 hPa 0,0 mm 5,8 km/h SW 225 4,1 C 6,8 C
25.09.2018 06:23 6,8 C 83 % 1030,9 hPa 0,0 mm 6,8 km/h SW 234 4,1 C 6,5 C
25.09.2018 06:22 6,8 C 83 % 1030,9 hPa 0,0 mm 1,8 km/h SW 221 4,1 C 6,8 C
25.09.2018 06:21 6,9 C 83 % 1030,9 hPa 0,0 mm 0,0 km/h W 266 4,2 C 6,9 C
25.09.2018 06:20 6,9 C 83 % 1030,8 hPa 0,0 mm 0,0 km/h N-NO 25 4,2 C 6,9 C
25.09.2018 06:19 6,9 C 83 % 1030,8 hPa 0,0 mm 0,0 km/h N-NO 25 4,2 C 6,9 C
25.09.2018 06:18 6,9 C 83 % 1030,8 hPa 0,0 mm 0,8 km/h N-NO 25 4,2 C 6,9 C
25.09.2018 06:17 6,8 C 83 % 1030,7 hPa 0,0 mm 0,0 km/h W-SW 248 4,1 C 6,8 C
25.09.2018 06:16 6,8 C 84 % 1030,7 hPa 0,0 mm 3,6 km/h W-SW 248 4,3 C 6,8 C
25.09.2018 06:15 6,7 C 83 % 1030,7 hPa 0,0 mm 4,2 km/h W-SW 248 4,0 C 6,7 C
25.09.2018 06:14 6,6 C 84 % 1030,7 hPa 0,0 mm 6,3 km/h W-SW 238 4,1 C 6,6 C
25.09.2018 06:13 6,5 C 84 % 1030,7 hPa 0,0 mm 9,0 km/h W-SW 244 4,0 C 4,4 C
25.09.2018 06:12 6,4 C 84 % 1030,6 hPa 0,0 mm 9,1 km/h W-SW 254 3,9 C 4,2 C
25.09.2018 06:11 6,3 C 85 % 1030,5 hPa 0,0 mm 7,9 km/h SW 221 4,0 C 5,0 C
25.09.2018 06:10 6,2 C 85 % 1030,6 hPa 0,0 mm 7,2 km/h SW 234 3,9 C 5,5 C
25.09.2018 06:09 6,2 C 85 % 1030,6 hPa 0,0 mm 8,2 km/h SW 232 3,9 C 4,7 C
25.09.2018 06:08 6,2 C 85 % 1030,7 hPa 0,0 mm 7,0 km/h SW 236 3,9 C 5,7 C
25.09.2018 06:07 6,2 C 85 % 1030,7 hPa 0,0 mm 6,0 km/h SW 229 3,9 C 6,2 C
25.09.2018 06:06 6,2 C 85 % 1030,7 hPa 0,0 mm 5,5 km/h SW 228 3,9 C 6,2 C
25.09.2018 06:05 6,2 C 85 % 1030,7 hPa 0,0 mm 1,3 km/h SW 228 3,9 C 6,2 C
25.09.2018 06:04 6,2 C 85 % 1030,7 hPa 0,0 mm 0,2 km/h SW 228 3,9 C 6,2 C
25.09.2018 06:03 6,2 C 85 % 1030,7 hPa 0,0 mm 0,0 km/h S-SO 162 3,9 C 6,2 C
25.09.2018 06:02 6,2 C 85 % 1030,7 hPa 0,0 mm 0,0 km/h S-SO 163 3,9 C 6,2 C
25.09.2018 06:01 6,2 C 85 % 1030,7 hPa 0,0 mm 0,0 km/h S-SO 163 3,9 C 6,2 C
25.09.2018 06:00 6,2 C 85 % 1030,6 hPa 0,0 mm 0,7 km/h O-SO 103 3,9 C 6,2 C
25.09.2018 05:59 6,2 C 85 % 1030,6 hPa 0,0 mm 0,0 km/h O-SO 103 3,9 C 6,2 C
25.09.2018 05:58 6,2 C 85 % 1030,7 hPa 0,0 mm 0,9 km/h SW 215 3,9 C 6,2 C
25.09.2018 05:57 6,2 C 85 % 1030,7 hPa 0,0 mm 3,2 km/h SW 215 3,9 C 6,2 C
25.09.2018 05:56 6,1 C 85 % 1030,8 hPa 0,0 mm 5,5 km/h W-SW 240 3,8 C 6,1 C
25.09.2018 05:55 6,1 C 85 % 1030,7 hPa 0,0 mm 7,3 km/h W 260 3,8 C 5,3 C
25.09.2018 05:54 6,1 C 85 % 1030,7 hPa 0,0 mm 5,3 km/h NW 307 3,8 C 6,1 C
25.09.2018 05:53 6,1 C 85 % 1030,6 hPa 0,0 mm 5,6 km/h NW 322 3,8 C 6,1 C
25.09.2018 05:52 6,1 C 85 % 1030,6 hPa 0,0 mm 0,1 km/h S 189 3,8 C 6,1 C
25.09.2018 05:51 6,1 C 85 % 1030,6 hPa 0,0 mm 1,4 km/h S 171 3,8 C 6,1 C
25.09.2018 05:50 6,1 C 85 % 1030,6 hPa 0,0 mm 6,7 km/h S 171 3,8 C 5,9 C
25.09.2018 05:49 6,1 C 85 % 1030,6 hPa 0,0 mm 9,1 km/h S-SW 194 3,8 C 3,9 C
25.09.2018 05:48 6,1 C 85 % 1030,7 hPa 0,0 mm 10,3 km/h S-SW 211 3,8 C 3,1 C
25.09.2018 05:47 6,2 C 85 % 1030,7 hPa 0,0 mm 5,9 km/h SW 218 3,9 C 6,2 C
25.09.2018 05:46 6,2 C 86 % 1030,7 hPa 0,0 mm 4,1 km/h SW 225 4,0 C 6,2 C
25.09.2018 05:45 6,2 C 86 % 1030,7 hPa 0,0 mm 3,2 km/h SW 234 4,0 C 6,2 C
25.09.2018 05:44 6,2 C 86 % 1030,6 hPa 0,0 mm 4,8 km/h SW 223 4,0 C 6,2 C
25.09.2018 05:43 6,1 C 86 % 1030,7 hPa 0,0 mm 5,1 km/h S-SW 195 3,9 C 6,1 C
25.09.2018 05:42 6,1 C 85 % 1030,7 hPa 0,0 mm 4,4 km/h S 174 3,8 C 6,1 C
25.09.2018 05:41 6,1 C 85 % 1030,7 hPa 0,0 mm 1,3 km/h S 174 3,8 C 6,1 C
25.09.2018 05:40 6,0 C 85 % 1030,8 hPa 0,0 mm 0,0 km/h S 173 3,7 C 6,0 C
25.09.2018 05:39 6,0 C 85 % 1030,8 hPa 0,0 mm 0,0 km/h S 173 3,7 C 6,0 C
25.09.2018 05:38 5,9 C 85 % 1030,8 hPa 0,0 mm 0,0 km/h NO 48 3,6 C 5,9 C
25.09.2018 05:37 5,9 C 85 % 1030,8 hPa 0,0 mm 0,0 km/h NO 48 3,6 C 5,9 C
25.09.2018 05:36 5,8 C 86 % 1030,7 hPa 0,0 mm 0,0 km/h NO 48 3,6 C 5,8 C
25.09.2018 05:35 5,8 C 86 % 1030,7 hPa 0,0 mm 0,0 km/h NO 48 3,6 C 5,8 C
25.09.2018 05:34 5,7 C 86 % 1030,8 hPa 0,0 mm 0,1 km/h NO 48 3,5 C 5,7 C
25.09.2018 05:33 5,7 C 86 % 1030,8 hPa 0,0 mm 0,0 km/h NO 48 3,5 C 5,7 C
25.09.2018 05:32 5,7 C 86 % 1030,8 hPa 0,0 mm 0,5 km/h NO 48 3,5 C 5,7 C
25.09.2018 05:31 5,6 C 86 % 1030,8 hPa 0,0 mm 4,7 km/h NO 48 3,4 C 5,6 C
25.09.2018 05:30 5,6 C 86 % 1030,7 hPa 0,0 mm 2,1 km/h NO 49 3,4 C 5,6 C
25.09.2018 05:29 5,6 C 86 % 1030,7 hPa 0,0 mm 0,0 km/h W-NW 297 3,4 C 5,6 C
25.09.2018 05:28 5,6 C 86 % 1030,7 hPa 0,0 mm 0,0 km/h W-NW 297 3,4 C 5,6 C
25.09.2018 05:27 5,7 C 86 % 1030,7 hPa 0,0 mm 0,0 km/h W-NW 297 3,5 C 5,7 C
25.09.2018 05:26 5,7 C 86 % 1030,7 hPa 0,0 mm 0,0 km/h W-NW 297 3,5 C 5,7 C
25.09.2018 05:25 5,7 C 86 % 1030,7 hPa 0,0 mm 0,0 km/h W-NW 297 3,5 C 5,7 C
25.09.2018 05:24 5,7 C 86 % 1030,7 hPa 0,0 mm 0,9 km/h W-NW 297 3,5 C 5,7 C
25.09.2018 05:23 5,7 C 86 % 1030,7 hPa 0,0 mm 4,6 km/h W-NW 297 3,5 C 5,7 C
25.09.2018 05:22 5,7 C 86 % 1030,7 hPa 0,0 mm 0,0 km/h NW 305 3,5 C 5,7 C
25.09.2018 05:21 5,7 C 86 % 1030,6 hPa 0,0 mm 0,0 km/h N-NO 15 3,5 C 5,7 C
25.09.2018 05:20 5,7 C 86 % 1030,5 hPa 0,0 mm 0,0 km/h N-NO 15 3,5 C 5,7 C
25.09.2018 05:19 5,7 C 86 % 1030,5 hPa 0,0 mm 0,0 km/h W 279 3,5 C 5,7 C
25.09.2018 05:18 5,8 C 86 % 1030,5 hPa 0,0 mm 0,0 km/h W 279 3,6 C 5,8 C
25.09.2018 05:17 5,7 C 86 % 1030,5 hPa 0,0 mm 0,0 km/h W 279 3,5 C 5,7 C
25.09.2018 05:16 5,7 C 86 % 1030,4 hPa 0,0 mm 0,0 km/h W 279 3,5 C 5,7 C
25.09.2018 05:15 5,7 C 86 % 1030,4 hPa 0,0 mm 0,0 km/h W 277 3,5 C 5,7 C
25.09.2018 05:14 5,7 C 86 % 1030,4 hPa 0,0 mm 0,9 km/h W 277 3,5 C 5,7 C
25.09.2018 05:13 5,7 C 86 % 1030,4 hPa 0,0 mm 3,9 km/h W-NW 283 3,5 C 5,7 C
25.09.2018 05:12 5,8 C 86 % 1030,3 hPa 0,0 mm 2,4 km/h W 275 3,6 C 5,8 C
25.09.2018 05:11 5,8 C 86 % 1030,3 hPa 0,0 mm 0,0 km/h O-SO 116 3,6 C 5,8 C
25.09.2018 05:10 5,7 C 86 % 1030,3 hPa 0,0 mm 0,0 km/h O-SO 116 3,5 C 5,7 C
25.09.2018 05:09 5,7 C 86 % 1030,3 hPa 0,0 mm 0,0 km/h O-SO 116 3,5 C 5,7 C
25.09.2018 05:08 5,7 C 86 % 1030,2 hPa 0,0 mm 0,0 km/h O-SO 116 3,5 C 5,7 C
25.09.2018 05:07 5,7 C 87 % 1030,2 hPa 0,0 mm 0,0 km/h O-SO 116 3,7 C 5,7 C
25.09.2018 05:06 5,6 C 87 % 1030,1 hPa 0,0 mm 0,0 km/h O-SO 116 3,6 C 5,6 C
25.09.2018 05:05 5,5 C 86 % 1030,2 hPa 0,0 mm 0,0 km/h O-SO 116 3,3 C 5,5 C
25.09.2018 05:04 5,4 C 87 % 1030,2 hPa 0,0 mm 0,0 km/h O-SO 116 3,4 C 5,4 C
25.09.2018 05:03 5,4 C 87 % 1030,2 hPa 0,0 mm 0,0 km/h O-NO 61 3,4 C 5,4 C
25.09.2018 05:02 5,3 C 87 % 1030,3 hPa 0,0 mm 0,0 km/h O-NO 61 3,3 C 5,3 C
25.09.2018 05:01 5,3 C 87 % 1030,3 hPa 0,0 mm 0,0 km/h O-NO 61 3,3 C 5,3 C
25.09.2018 05:00 5,2 C 87 % 1030,3 hPa 0,0 mm 0,0 km/h O-NO 61 3,2 C 5,2 C
25.09.2018 04:59 5,1 C 87 % 1030,3 hPa 0,0 mm 0,0 km/h O-NO 61 3,1 C 5,1 C
25.09.2018 04:58 5,1 C 87 % 1030,3 hPa 0,0 mm 0,0 km/h O-NO 61 3,1 C 5,1 C
25.09.2018 04:57 5,0 C 87 % 1030,2 hPa 0,0 mm 0,0 km/h O-NO 61 3,0 C 5,0 C
25.09.2018 04:56 4,9 C 88 % 1030,3 hPa 0,0 mm 1,8 km/h O-NO 61 3,1 C 4,9 C
25.09.2018 04:55 4,8 C 88 % 1030,3 hPa 0,0 mm 2,9 km/h NO 53 3,0 C 4,8 C
25.09.2018 04:54 4,8 C 88 % 1030,3 hPa 0,0 mm 1,5 km/h NO 34 3,0 C 4,8 C
25.09.2018 04:53 4,7 C 88 % 1030,3 hPa 0,0 mm 0,0 km/h NO 53 2,9 C 4,7 C
25.09.2018 04:52 4,7 C 88 % 1030,3 hPa 0,0 mm 0,0 km/h NO 53 2,9 C 4,7 C
25.09.2018 04:51 4,7 C 88 % 1030,3 hPa 0,0 mm 0,0 km/h NO 53 2,9 C 4,7 C
25.09.2018 04:50 4,7 C 88 % 1030,3 hPa 0,0 mm 0,0 km/h NO 55 2,9 C 4,7 C
25.09.2018 04:49 4,7 C 88 % 1030,3 hPa 0,0 mm 0,0 km/h NO 55 2,9 C 4,7 C
25.09.2018 04:48 4,8 C 88 % 1030,3 hPa 0,0 mm 0,0 km/h NO 55 3,0 C 4,8 C
25.09.2018 04:47 4,8 C 88 % 1030,3 hPa 0,0 mm 0,0 km/h NO 55 3,0 C 4,8 C
25.09.2018 04:46 4,8 C 88 % 1030,3 hPa 0,0 mm 0,0 km/h NO 55 3,0 C 4,8 C
25.09.2018 04:45 4,8 C 88 % 1030,2 hPa 0,0 mm 0,0 km/h NO 53 3,0 C 4,8 C
25.09.2018 04:44 4,9 C 88 % 1030,2 hPa 0,0 mm 0,0 km/h NO 53 3,1 C 4,9 C
25.09.2018 04:43 4,9 C 88 % 1030,1 hPa 0,0 mm 0,0 km/h NO 53 3,1 C 4,9 C
25.09.2018 04:42 4,9 C 87 % 1030,1 hPa 0,0 mm 0,0 km/h NO 53 2,9 C 4,9 C
25.09.2018 04:41 4,9 C 87 % 1030,1 hPa 0,0 mm 0,0 km/h NO 54 2,9 C 4,9 C
25.09.2018 04:40 4,8 C 87 % 1030,0 hPa 0,0 mm 1,7 km/h W 269 2,8 C 4,8 C
25.09.2018 04:39 4,8 C 87 % 1030,0 hPa 0,0 mm 1,6 km/h W 268 2,8 C 4,8 C
25.09.2018 04:38 4,8 C 87 % 1030,0 hPa 0,0 mm 0,0 km/h NW 322 2,8 C 4,8 C
25.09.2018 04:37 4,8 C 87 % 1030,0 hPa 0,0 mm 0,0 km/h NW 322 2,8 C 4,8 C
25.09.2018 04:36 4,8 C 87 % 1029,9 hPa 0,0 mm 0,0 km/h NW 322 2,8 C 4,8 C
25.09.2018 04:35 4,8 C 87 % 1030,0 hPa 0,0 mm 0,0 km/h NW 322 2,8 C 4,8 C
25.09.2018 04:34 4,8 C 87 % 1029,9 hPa 0,0 mm 1,5 km/h NW 322 2,8 C 4,8 C
25.09.2018 04:33 4,8 C 87 % 1030,0 hPa 0,0 mm 2,5 km/h NW 322 2,8 C 4,8 C
25.09.2018 04:32 4,7 C 87 % 1029,9 hPa 0,0 mm 1,9 km/h N-NO 17 2,7 C 4,7 C
25.09.2018 04:31 4,7 C 88 % 1029,9 hPa 0,0 mm 2,7 km/h NW 313 2,9 C 4,7 C
25.09.2018 04:30 4,6 C 88 % 1029,9 hPa 0,0 mm 4,2 km/h NW 313 2,8 C 4,6 C
25.09.2018 04:29 4,6 C 88 % 1029,9 hPa 0,0 mm 3,1 km/h W 275 2,8 C 4,6 C
25.09.2018 04:28 4,6 C 87 % 1029,8 hPa 0,0 mm 4,6 km/h W 275 2,6 C 4,6 C
25.09.2018 04:27 4,5 C 87 % 1029,8 hPa 0,0 mm 4,9 km/h W 272 2,5 C 4,5 C
25.09.2018 04:26 4,5 C 87 % 1029,8 hPa 0,0 mm 3,1 km/h W-NW 288 2,5 C 4,5 C
25.09.2018 04:25 4,5 C 87 % 1029,8 hPa 0,0 mm 0,0 km/h W-SW 255 2,5 C 4,5 C
25.09.2018 04:24 4,5 C 87 % 1029,8 hPa 0,0 mm 0,0 km/h W-SW 254 2,5 C 4,5 C
25.09.2018 04:23 4,5 C 87 % 1029,8 hPa 0,0 mm 0,0 km/h N-NW 343 2,5 C 4,5 C
25.09.2018 04:22 4,6 C 87 % 1029,8 hPa 0,0 mm 0,0 km/h N-NW 343 2,6 C 4,6 C
25.09.2018 04:21 4,6 C 87 % 1029,8 hPa 0,0 mm 0,0 km/h W 274 2,6 C 4,6 C
25.09.2018 04:20 4,6 C 87 % 1029,7 hPa 0,0 mm 0,0 km/h W 274 2,6 C 4,6 C
25.09.2018 04:19 4,6 C 87 % 1029,6 hPa 0,0 mm 0,0 km/h W 274 2,6 C 4,6 C
25.09.2018 04:18 4,6 C 87 % 1029,7 hPa 0,0 mm 0,0 km/h W 274 2,6 C 4,6 C
25.09.2018 04:17 4,6 C 87 % 1029,7 hPa 0,0 mm 0,0 km/h W 274 2,6 C 4,6 C
25.09.2018 04:16 4,6 C 87 % 1029,6 hPa 0,0 mm 0,0 km/h W 274 2,6 C 4,6 C
25.09.2018 04:15 4,6 C 87 % 1029,6 hPa 0,0 mm 0,0 km/h W 274 2,6 C 4,6 C
25.09.2018 04:14 4,6 C 87 % 1029,6 hPa 0,0 mm 0,0 km/h W 274 2,6 C 4,6 C
25.09.2018 04:13 4,6 C 87 % 1029,5 hPa 0,0 mm 0,0 km/h W 274 2,6 C 4,6 C
25.09.2018 04:12 4,6 C 88 % 1029,5 hPa 0,0 mm 0,0 km/h W 274 2,8 C 4,6 C
25.09.2018 04:11 4,6 C 88 % 1029,5 hPa 0,0 mm 0,0 km/h W 274 2,8 C 4,6 C
25.09.2018 04:10 4,5 C 88 % 1029,5 hPa 0,0 mm 0,0 km/h W 274 2,7 C 4,5 C
25.09.2018 04:09 4,4 C 88 % 1029,6 hPa 0,0 mm 0,0 km/h W 274 2,6 C 4,4 C
25.09.2018 04:08 4,4 C 88 % 1029,6 hPa 0,0 mm 0,0 km/h W 274 2,6 C 4,4 C
25.09.2018 04:07 4,4 C 88 % 1029,6 hPa 0,0 mm 0,0 km/h W 274 2,6 C 4,4 C
25.09.2018 04:06 4,3 C 88 % 1029,5 hPa 0,0 mm 0,0 km/h W 273 2,5 C 4,3 C
25.09.2018 04:05 4,3 C 88 % 1029,5 hPa 0,0 mm 0,0 km/h W 273 2,5 C 4,3 C
25.09.2018 04:04 4,3 C 88 % 1029,5 hPa 0,0 mm 0,0 km/h W 273 2,5 C 4,3 C
25.09.2018 04:00 4,3 C 88 % 1029,5 hPa 0,0 mm 0,0 km/h W 273 2,5 C 4,3 C
25.09.2018 03:59 4,3 C 88 % 1029,5 hPa 0,0 mm 0,0 km/h W 273 2,5 C 4,3 C
25.09.2018 03:58 4,3 C 88 % 1029,5 hPa 0,0 mm 0,0 km/h W 273 2,5 C 4,3 C
25.09.2018 03:57 4,2 C 88 % 1029,5 hPa 0,0 mm 0,0 km/h W 273 2,4 C 4,2 C
25.09.2018 03:56 4,2 C 88 % 1029,5 hPa 0,0 mm 0,0 km/h W 273 2,4 C 4,2 C
25.09.2018 03:55 4,3 C 88 % 1029,5 hPa 0,0 mm 0,0 km/h W 273 2,5 C 4,3 C
25.09.2018 03:54 4,3 C 88 % 1029,6 hPa 0,0 mm 0,0 km/h N 9 2,5 C 4,3 C
25.09.2018 03:53 4,3 C 88 % 1029,6 hPa 0,0 mm 0,0 km/h N 9 2,5 C 4,3 C
25.09.2018 03:52 4,3 C 88 % 1029,5 hPa 0,0 mm 0,0 km/h N 9 2,5 C 4,3 C
25.09.2018 03:51 4,3 C 88 % 1029,5 hPa 0,0 mm 0,0 km/h N 9 2,5 C 4,3 C
25.09.2018 03:50 4,3 C 88 % 1029,5 hPa 0,0 mm 0,0 km/h N 9 2,5 C 4,3 C
25.09.2018 03:49 4,3 C 88 % 1029,5 hPa 0,0 mm 0,0 km/h N 9 2,5 C 4,3 C
25.09.2018 03:48 4,3 C 88 % 1029,5 hPa 0,0 mm 0,6 km/h N 9 2,5 C 4,3 C
25.09.2018 03:47 4,3 C 88 % 1029,5 hPa 0,0 mm 4,6 km/h N 9 2,5 C 4,3 C
25.09.2018 03:46 4,3 C 88 % 1029,5 hPa 0,0 mm 0,7 km/h NW 309 2,5 C 4,3 C
25.09.2018 03:45 4,3 C 88 % 1029,5 hPa 0,0 mm 0,0 km/h W-NW 294 2,5 C 4,3 C
25.09.2018 03:44 4,2 C 88 % 1029,5 hPa 0,0 mm 2,0 km/h W-NW 294 2,4 C 4,2 C
25.09.2018 03:43 4,2 C 88 % 1029,5 hPa 0,0 mm 8,2 km/h W-NW 294 2,4 C 2,6 C
25.09.2018 03:42 4,2 C 88 % 1029,5 hPa 0,0 mm 4,8 km/h W-NW 288 2,4 C 4,2 C
25.09.2018 03:41 4,3 C 88 % 1029,5 hPa 0,0 mm 3,7 km/h W-NW 302 2,5 C 4,3 C
25.09.2018 03:40 4,3 C 88 % 1029,5 hPa 0,0 mm 3,2 km/h W-NW 302 2,5 C 4,3 C
25.09.2018 03:39 4,3 C 88 % 1029,5 hPa 0,0 mm 6,8 km/h NW 304 2,5 C 3,9 C
25.09.2018 03:38 4,3 C 88 % 1029,4 hPa 0,0 mm 7,2 km/h NW 305 2,5 C 3,6 C
25.09.2018 03:37 4,4 C 88 % 1029,3 hPa 0,0 mm 0,0 km/h N-NO 32 2,6 C 4,4 C
25.09.2018 03:36 4,4 C 88 % 1029,3 hPa 0,0 mm 0,0 km/h N-NO 32 2,6 C 4,4 C
25.09.2018 03:35 4,4 C 88 % 1029,3 hPa 0,0 mm 0,0 km/h N-NO 32 2,6 C 4,4 C
25.09.2018 03:34 4,4 C 88 % 1029,3 hPa 0,0 mm 0,0 km/h N-NO 32 2,6 C 4,4 C
25.09.2018 03:33 4,4 C 88 % 1029,3 hPa 0,0 mm 0,0 km/h N 5 2,6 C 4,4 C
25.09.2018 03:32 4,4 C 88 % 1029,3 hPa 0,0 mm 0,0 km/h N-NW 344 2,6 C 4,4 C
25.09.2018 03:31 4,4 C 88 % 1029,3 hPa 0,0 mm 0,0 km/h N-NW 344 2,6 C 4,4 C
25.09.2018 03:30 4,4 C 88 % 1029,3 hPa 0,0 mm 0,5 km/h N-NW 344 2,6 C 4,4 C
25.09.2018 03:29 4,3 C 88 % 1029,4 hPa 0,0 mm 0,0 km/h N-NW 344 2,5 C 4,3 C
25.09.2018 03:28 4,3 C 88 % 1029,4 hPa 0,0 mm 0,0 km/h N-NW 344 2,5 C 4,3 C
25.09.2018 03:27 4,3 C 88 % 1029,4 hPa 0,0 mm 0,0 km/h N-NW 344 2,5 C 4,3 C
25.09.2018 03:26 4,3 C 88 % 1029,4 hPa 0,0 mm 0,0 km/h N-NW 344 2,5 C 4,3 C
25.09.2018 03:25 4,3 C 88 % 1029,4 hPa 0,0 mm 0,0 km/h N-NO 30 2,5 C 4,3 C
25.09.2018 03:24 4,3 C 88 % 1029,3 hPa 0,0 mm 0,0 km/h N-NO 30 2,5 C 4,3 C
25.09.2018 03:23 4,3 C 88 % 1029,3 hPa 0,0 mm 0,0 km/h N-NO 30 2,5 C 4,3 C
25.09.2018 03:22 4,4 C 87 % 1029,3 hPa 0,0 mm 0,0 km/h N-NO 30 2,4 C 4,4 C
25.09.2018 03:21 4,4 C 87 % 1029,4 hPa 0,0 mm 0,0 km/h N-NO 30 2,4 C 4,4 C
25.09.2018 03:20 4,4 C 87 % 1029,4 hPa 0,0 mm 0,0 km/h N-NO 30 2,4 C 4,4 C
25.09.2018 03:19 4,5 C 87 % 1029,4 hPa 0,0 mm 0,0 km/h N-NO 30 2,5 C 4,5 C
25.09.2018 03:18 4,6 C 87 % 1029,4 hPa 0,0 mm 0,0 km/h N-NO 30 2,6 C 4,6 C
25.09.2018 03:17 4,6 C 87 % 1029,4 hPa 0,0 mm 0,0 km/h N-NO 30 2,6 C 4,6 C
25.09.2018 03:16 4,6 C 87 % 1029,4 hPa 0,0 mm 0,0 km/h N-NO 30 2,6 C 4,6 C
25.09.2018 03:15 4,7 C 87 % 1029,4 hPa 0,0 mm 0,0 km/h N-NO 30 2,7 C 4,7 C
25.09.2018 03:14 4,7 C 87 % 1029,4 hPa 0,0 mm 0,0 km/h N-NO 30 2,7 C 4,7 C
25.09.2018 03:13 4,7 C 87 % 1029,4 hPa 0,0 mm 0,0 km/h N-NO 30 2,7 C 4,7 C
25.09.2018 03:12 4,7 C 87 % 1029,2 hPa 0,0 mm 0,0 km/h N-NO 30 2,7 C 4,7 C
25.09.2018 03:11 4,7 C 88 % 1029,2 hPa 0,0 mm 0,0 km/h O-SO 118 2,9 C 4,7 C
25.09.2018 03:10 4,7 C 88 % 1029,1 hPa 0,0 mm 2,7 km/h S-SW 196 2,9 C 4,7 C
25.09.2018 03:09 4,6 C 88 % 1029,1 hPa 0,0 mm 7,2 km/h S-SW 196 2,8 C 3,9 C
25.09.2018 03:08 4,6 C 88 % 1029,1 hPa 0,0 mm 8,9 km/h S-SW 194 2,8 C 2,5 C
25.09.2018 03:07 4,4 C 88 % 1029,1 hPa 0,0 mm 9,3 km/h S-SW 194 2,6 C 1,9 C
25.09.2018 03:06 4,4 C 87 % 1029,1 hPa 0,0 mm 7,3 km/h S-SW 194 2,4 C 3,6 C
25.09.2018 03:05 4,4 C 87 % 1029,1 hPa 0,0 mm 2,3 km/h S 186 2,4 C 4,4 C
25.09.2018 03:04 4,3 C 87 % 1029,2 hPa 0,0 mm 0,9 km/h S 180 2,3 C 4,3 C
25.09.2018 03:03 4,3 C 87 % 1029,2 hPa 0,0 mm 0,0 km/h S-SW 201 2,3 C 4,3 C
25.09.2018 03:02 4,3 C 87 % 1029,3 hPa 0,0 mm 0,0 km/h S-SW 201 2,3 C 4,3 C
25.09.2018 03:01 4,3 C 87 % 1029,3 hPa 0,0 mm 0,0 km/h S-SW 201 2,3 C 4,3 C
25.09.2018 03:00 4,2 C 87 % 1029,3 hPa 0,0 mm 2,0 km/h S-SW 201 2,2 C 4,2 C
25.09.2018 02:59 4,2 C 87 % 1029,4 hPa 0,0 mm 2,7 km/h S-SW 201 2,2 C 4,2 C
25.09.2018 02:58 4,2 C 87 % 1029,3 hPa 0,0 mm 0,1 km/h S-SW 202 2,2 C 4,2 C
25.09.2018 02:57 4,2 C 87 % 1029,4 hPa 0,0 mm 0,0 km/h S-SW 202 2,2 C 4,2 C
25.09.2018 02:56 4,1 C 87 % 1029,4 hPa 0,0 mm 0,0 km/h S-SW 202 2,1 C 4,1 C
25.09.2018 02:55 4,1 C 87 % 1029,4 hPa 0,0 mm 0,0 km/h S-SW 202 2,1 C 4,1 C
25.09.2018 02:54 4,1 C 87 % 1029,4 hPa 0,0 mm 3,5 km/h S-SW 202 2,1 C 4,1 C
25.09.2018 02:53 4,1 C 87 % 1029,4 hPa 0,0 mm 2,7 km/h S-SW 202 2,1 C 4,1 C
25.09.2018 02:52 4,1 C 87 % 1029,4 hPa 0,0 mm 0,0 km/h S-SW 202 2,1 C 4,1 C
25.09.2018 02:51 4,1 C 87 % 1029,4 hPa 0,0 mm 0,0 km/h S-SW 202 2,1 C 4,1 C
25.09.2018 02:50 4,1 C 86 % 1029,4 hPa 0,0 mm 0,0 km/h S-SW 202 2,0 C 4,1 C
25.09.2018 02:49 4,1 C 86 % 1029,3 hPa 0,0 mm 0,0 km/h S-SW 202 2,0 C 4,1 C
25.09.2018 02:48 4,1 C 87 % 1029,3 hPa 0,0 mm 0,0 km/h S-SW 202 2,1 C 4,1 C
25.09.2018 02:47 4,1 C 87 % 1029,4 hPa 0,0 mm 0,0 km/h W 281 2,1 C 4,1 C
25.09.2018 02:46 4,1 C 86 % 1029,4 hPa 0,0 mm 0,0 km/h W 281 2,0 C 4,1 C
25.09.2018 02:45 4,1 C 86 % 1029,4 hPa 0,0 mm 0,0 km/h W 281 2,0 C 4,1 C
25.09.2018 02:44 4,1 C 86 % 1029,4 hPa 0,0 mm 0,0 km/h W 281 2,0 C 4,1 C
25.09.2018 02:43 4,1 C 86 % 1029,4 hPa 0,0 mm 0,0 km/h W 281 2,0 C 4,1 C
25.09.2018 02:42 4,1 C 86 % 1029,4 hPa 0,0 mm 0,0 km/h W 281 2,0 C 4,1 C
25.09.2018 02:41 4,1 C 86 % 1029,4 hPa 0,0 mm 0,0 km/h W 281 2,0 C 4,1 C
25.09.2018 02:40 4,1 C 86 % 1029,4 hPa 0,0 mm 0,0 km/h W 281 2,0 C 4,1 C
25.09.2018 02:39 4,1 C 86 % 1029,4 hPa 0,0 mm 0,0 km/h W 281 2,0 C 4,1 C
25.09.2018 02:38 4,1 C 86 % 1029,3 hPa 0,0 mm 0,0 km/h W 281 2,0 C 4,1 C
25.09.2018 02:37 4,1 C 86 % 1029,3 hPa 0,0 mm 0,0 km/h W 281 2,0 C 4,1 C
25.09.2018 02:36 4,2 C 86 % 1029,4 hPa 0,0 mm 0,0 km/h W 281 2,1 C 4,2 C
25.09.2018 02:35 4,2 C 86 % 1029,4 hPa 0,0 mm 0,0 km/h W 281 2,1 C 4,2 C
25.09.2018 02:34 4,2 C 86 % 1029,4 hPa 0,0 mm 0,0 km/h W 281 2,1 C 4,2 C
25.09.2018 02:33 4,2 C 86 % 1029,4 hPa 0,0 mm 0,0 km/h W 281 2,1 C 4,2 C
25.09.2018 02:32 4,2 C 86 % 1029,5 hPa 0,0 mm 0,0 km/h W 281 2,1 C 4,2 C
25.09.2018 02:31 4,2 C 85 % 1029,4 hPa 0,0 mm 0,0 km/h W 281 1,9 C 4,2 C
25.09.2018 02:30 4,3 C 85 % 1029,4 hPa 0,0 mm 0,0 km/h W 281 2,0 C 4,3 C
25.09.2018 02:29 4,3 C 85 % 1029,4 hPa 0,0 mm 0,0 km/h W 281 2,0 C 4,3 C
25.09.2018 02:28 4,3 C 85 % 1029,5 hPa 0,0 mm 0,0 km/h W 281 2,0 C 4,3 C
25.09.2018 02:27 4,3 C 85 % 1029,4 hPa 0,0 mm 0,0 km/h W 281 2,0 C 4,3 C
25.09.2018 02:26 4,3 C 85 % 1029,4 hPa 0,0 mm 0,0 km/h W 281 2,0 C 4,3 C
25.09.2018 02:25 4,3 C 85 % 1029,4 hPa 0,0 mm 0,0 km/h W 281 2,0 C 4,3 C
25.09.2018 02:24 4,3 C 85 % 1029,5 hPa 0,0 mm 0,0 km/h W 281 2,0 C 4,3 C
25.09.2018 02:23 4,3 C 85 % 1029,5 hPa 0,0 mm 0,0 km/h W 281 2,0 C 4,3 C
25.09.2018 02:22 4,3 C 85 % 1029,5 hPa 0,0 mm 0,0 km/h W 281 2,0 C 4,3 C
25.09.2018 02:21 4,3 C 85 % 1029,5 hPa 0,0 mm 0,0 km/h W 281 2,0 C 4,3 C
25.09.2018 02:20 4,2 C 85 % 1029,5 hPa 0,0 mm 0,0 km/h W 281 1,9 C 4,2 C
25.09.2018 02:19 4,2 C 85 % 1029,4 hPa 0,0 mm 0,0 km/h W 281 1,9 C 4,2 C
25.09.2018 02:18 4,2 C 85 % 1029,4 hPa 0,0 mm 0,0 km/h W 281 1,9 C 4,2 C
25.09.2018 02:17 4,2 C 85 % 1029,4 hPa 0,0 mm 0,0 km/h W 281 1,9 C 4,2 C
25.09.2018 02:16 4,1 C 85 % 1029,3 hPa 0,0 mm 0,0 km/h W 281 1,8 C 4,1 C
25.09.2018 02:15 4,1 C 85 % 1029,4 hPa 0,0 mm 0,0 km/h W 281 1,8 C 4,1 C
25.09.2018 02:14 4,1 C 85 % 1029,4 hPa 0,0 mm 0,0 km/h W 281 1,8 C 4,1 C
25.09.2018 02:13 4,1 C 85 % 1029,4 hPa 0,0 mm 0,0 km/h W 281 1,8 C 4,1 C
25.09.2018 02:12 4,1 C 85 % 1029,4 hPa 0,0 mm 0,0 km/h W 281 1,8 C 4,1 C
25.09.2018 02:11 4,1 C 85 % 1029,5 hPa 0,0 mm 0,0 km/h W 281 1,8 C 4,1 C
25.09.2018 02:10 4,0 C 85 % 1029,5 hPa 0,0 mm 0,0 km/h W 281 1,7 C 4,0 C
25.09.2018 02:09 4,0 C 85 % 1029,5 hPa 0,0 mm 0,0 km/h W 281 1,7 C 4,0 C
25.09.2018 02:08 4,0 C 85 % 1029,5 hPa 0,0 mm 0,0 km/h W 281 1,7 C 4,0 C
25.09.2018 02:07 3,9 C 85 % 1029,4 hPa 0,0 mm 0,0 km/h W 280 1,6 C 3,9 C
25.09.2018 02:06 3,9 C 85 % 1029,4 hPa 0,0 mm 0,0 km/h W 280 1,6 C 3,9 C
25.09.2018 02:05 3,9 C 86 % 1029,4 hPa 0,0 mm 0,0 km/h NW 321 1,8 C 3,9 C
25.09.2018 02:04 3,9 C 86 % 1029,4 hPa 0,0 mm 0,0 km/h NW 321 1,8 C 3,9 C
25.09.2018 02:03 3,9 C 85 % 1029,4 hPa 0,0 mm 0,0 km/h NW 321 1,6 C 3,9 C
25.09.2018 02:02 3,9 C 85 % 1029,4 hPa 0,0 mm 0,0 km/h NW 321 1,6 C 3,9 C
25.09.2018 02:01 4,0 C 85 % 1029,4 hPa 0,0 mm 0,0 km/h NW 321 1,7 C 4,0 C
25.09.2018 02:00 4,0 C 85 % 1029,4 hPa 0,0 mm 0,0 km/h NW 321 1,7 C 4,0 C
25.09.2018 01:59 4,1 C 85 % 1029,4 hPa 0,0 mm 0,0 km/h NW 321 1,8 C 4,1 C
25.09.2018 01:58 4,1 C 85 % 1029,3 hPa 0,0 mm 0,0 km/h NW 321 1,8 C 4,1 C
25.09.2018 01:57 4,1 C 85 % 1029,4 hPa 0,0 mm 0,0 km/h NW 321 1,8 C 4,1 C
25.09.2018 01:56 4,1 C 85 % 1029,4 hPa 0,0 mm 0,0 km/h NW 321 1,8 C 4,1 C
25.09.2018 01:55 4,1 C 85 % 1029,4 hPa 0,0 mm 0,0 km/h NW 321 1,8 C 4,1 C
25.09.2018 01:54 4,2 C 85 % 1029,3 hPa 0,0 mm 0,0 km/h NW 321 1,9 C 4,2 C
25.09.2018 01:53 4,2 C 85 % 1029,3 hPa 0,0 mm 0,0 km/h NW 321 1,9 C 4,2 C
25.09.2018 01:52 4,2 C 85 % 1029,3 hPa 0,0 mm 0,0 km/h NW 321 1,9 C 4,2 C
25.09.2018 01:51 4,2 C 85 % 1029,3 hPa 0,0 mm 0,0 km/h NW 321 1,9 C 4,2 C
25.09.2018 01:50 4,2 C 85 % 1029,3 hPa 0,0 mm 0,0 km/h NW 321 1,9 C 4,2 C
25.09.2018 01:49 4,2 C 85 % 1029,3 hPa 0,0 mm 0,0 km/h NW 321 1,9 C 4,2 C
25.09.2018 01:48 4,2 C 85 % 1029,3 hPa 0,0 mm 0,0 km/h NW 321 1,9 C 4,2 C
25.09.2018 01:47 4,2 C 85 % 1029,3 hPa 0,0 mm 0,0 km/h NW 321 1,9 C 4,2 C
25.09.2018 01:46 4,2 C 85 % 1029,3 hPa 0,0 mm 0,0 km/h NW 321 1,9 C 4,2 C
25.09.2018 01:45 4,3 C 85 % 1029,2 hPa 0,0 mm 0,0 km/h NW 321 2,0 C 4,3 C
25.09.2018 01:44 4,3 C 85 % 1029,2 hPa 0,0 mm 0,0 km/h NW 321 2,0 C 4,3 C
25.09.2018 01:43 4,3 C 85 % 1029,1 hPa 0,0 mm 0,0 km/h NW 321 2,0 C 4,3 C
25.09.2018 01:42 4,3 C 85 % 1029,1 hPa 0,0 mm 0,0 km/h NW 321 2,0 C 4,3 C
25.09.2018 01:41 4,3 C 84 % 1029,1 hPa 0,0 mm 0,0 km/h NW 321 1,8 C 4,3 C
25.09.2018 01:40 4,3 C 84 % 1029,1 hPa 0,0 mm 0,0 km/h NW 321 1,8 C 4,3 C
25.09.2018 01:39 4,4 C 84 % 1029,1 hPa 0,0 mm 0,0 km/h NW 321 1,9 C 4,4 C
25.09.2018 01:38 4,4 C 84 % 1029,1 hPa 0,0 mm 0,0 km/h NW 321 1,9 C 4,4 C
25.09.2018 01:37 4,5 C 84 % 1029,1 hPa 0,0 mm 0,0 km/h NW 321 2,0 C 4,5 C
25.09.2018 01:36 4,6 C 83 % 1029,1 hPa 0,0 mm 0,0 km/h NW 317 2,0 C 4,6 C
25.09.2018 01:35 4,7 C 83 % 1029,1 hPa 0,0 mm 0,0 km/h N-NW 327 2,1 C 4,7 C
25.09.2018 01:34 4,7 C 83 % 1029,1 hPa 0,0 mm 0,0 km/h N 5 2,1 C 4,7 C
25.09.2018 01:33 4,8 C 83 % 1029,2 hPa 0,0 mm 0,0 km/h N 5 2,2 C 4,8 C
25.09.2018 01:32 4,8 C 83 % 1029,1 hPa 0,0 mm 0,0 km/h N 5 2,2 C 4,8 C
25.09.2018 01:31 4,9 C 83 % 1029,0 hPa 0,0 mm 0,0 km/h N-NW 338 2,3 C 4,9 C
25.09.2018 01:30 4,9 C 83 % 1029,0 hPa 0,0 mm 0,0 km/h N-NW 338 2,3 C 4,9 C
25.09.2018 01:29 4,9 C 83 % 1029,0 hPa 0,0 mm 0,0 km/h N-NW 338 2,3 C 4,9 C
25.09.2018 01:28 4,9 C 83 % 1029,0 hPa 0,0 mm 0,0 km/h N-NW 338 2,3 C 4,9 C
25.09.2018 01:27 4,9 C 83 % 1029,0 hPa 0,0 mm 0,0 km/h N-NW 338 2,3 C 4,9 C
25.09.2018 01:26 4,9 C 83 % 1029,0 hPa 0,0 mm 1,3 km/h N-NW 338 2,3 C 4,9 C
25.09.2018 01:25 4,8 C 83 % 1029,0 hPa 0,0 mm 3,8 km/h N-NW 338 2,2 C 4,8 C
25.09.2018 01:24 4,8 C 84 % 1028,9 hPa 0,0 mm 5,5 km/h W-NW 303 2,3 C 4,8 C
25.09.2018 01:23 4,7 C 84 % 1028,9 hPa 0,0 mm 9,2 km/h W 263 2,2 C 2,3 C
25.09.2018 01:22 4,5 C 85 % 1028,9 hPa 0,0 mm 11,3 km/h W-SW 246 2,2 C 0,6 C
25.09.2018 01:21 4,4 C 85 % 1028,9 hPa 0,0 mm 5,5 km/h W 259 2,1 C 4,4 C
25.09.2018 01:20 4,3 C 86 % 1029,0 hPa 0,0 mm 9,2 km/h W-NW 302 2,2 C 1,9 C
25.09.2018 01:19 4,2 C 86 % 1028,9 hPa 0,0 mm 12,5 km/h W 262 2,1 C -0,5 C
25.09.2018 01:18 4,2 C 86 % 1029,0 hPa 0,0 mm 9,3 km/h W 267 2,1 C 1,7 C
25.09.2018 01:17 4,1 C 86 % 1029,0 hPa 0,0 mm 6,8 km/h W-NW 285 2,0 C 3,7 C
25.09.2018 01:16 4,1 C 86 % 1029,0 hPa 0,0 mm 3,1 km/h W-NW 299 2,0 C 4,1 C
25.09.2018 01:15 4,1 C 86 % 1029,0 hPa 0,0 mm 0,0 km/h W-SW 249 2,0 C 4,1 C
25.09.2018 01:14 4,1 C 86 % 1029,0 hPa 0,0 mm 0,1 km/h N 355 2,0 C 4,1 C
25.09.2018 01:13 4,1 C 86 % 1029,0 hPa 0,0 mm 2,1 km/h N 355 2,0 C 4,1 C
25.09.2018 01:12 4,1 C 86 % 1029,1 hPa 0,0 mm 4,0 km/h N 355 2,0 C 4,1 C
25.09.2018 01:11 4,0 C 86 % 1029,1 hPa 0,0 mm 3,8 km/h NW 319 1,9 C 4,0 C
25.09.2018 01:10 4,0 C 86 % 1029,0 hPa 0,0 mm 4,4 km/h NW 319 1,9 C 4,0 C
25.09.2018 01:09 4,0 C 86 % 1029,1 hPa 0,0 mm 3,7 km/h NW 323 1,9 C 4,0 C
25.09.2018 01:08 4,0 C 86 % 1029,1 hPa 0,0 mm 4,4 km/h N-NW 345 1,9 C 4,0 C
25.09.2018 01:07 4,0 C 86 % 1029,1 hPa 0,0 mm 3,5 km/h N-NW 345 1,9 C 4,0 C
25.09.2018 01:06 4,1 C 86 % 1029,0 hPa 0,0 mm 2,5 km/h N-NW 345 2,0 C 4,1 C
25.09.2018 01:05 4,1 C 85 % 1029,0 hPa 0,0 mm 4,6 km/h N-NW 346 1,8 C 4,1 C
25.09.2018 01:04 4,2 C 85 % 1029,0 hPa 0,0 mm 7,8 km/h N 355 1,9 C 2,9 C
25.09.2018 01:03 4,2 C 84 % 1028,9 hPa 0,0 mm 0,3 km/h NW 311 1,7 C 4,2 C
25.09.2018 01:02 4,3 C 84 % 1029,0 hPa 0,0 mm 4,6 km/h N 350 1,8 C 4,3 C
25.09.2018 01:01 4,3 C 84 % 1028,9 hPa 0,0 mm 5,1 km/h N 350 1,8 C 4,3 C
25.09.2018 01:00 4,4 C 84 % 1028,9 hPa 0,0 mm 3,0 km/h N 350 1,9 C 4,4 C
25.09.2018 00:59 4,4 C 84 % 1028,9 hPa 0,0 mm 0,0 km/h N-NO 15 1,9 C 4,4 C
25.09.2018 00:58 4,4 C 84 % 1028,7 hPa 0,0 mm 0,0 km/h N-NW 337 1,9 C 4,4 C
25.09.2018 00:57 4,4 C 84 % 1028,7 hPa 0,0 mm 0,0 km/h S-SW 202 1,9 C 4,4 C
25.09.2018 00:56 4,5 C 84 % 1028,9 hPa 0,0 mm 0,0 km/h S-SW 203 2,0 C 4,5 C
25.09.2018 00:55 4,5 C 84 % 1029,0 hPa 0,0 mm 0,0 km/h W-SW 252 2,0 C 4,5 C
25.09.2018 00:54 4,6 C 84 % 1029,0 hPa 0,0 mm 3,6 km/h N-NW 342 2,1 C 4,6 C
25.09.2018 00:53 4,6 C 83 % 1029,0 hPa 0,0 mm 6,0 km/h N-NW 341 2,0 C 4,6 C
25.09.2018 00:52 4,6 C 83 % 1028,8 hPa 0,0 mm 6,4 km/h NW 311 2,0 C 4,6 C
25.09.2018 00:51 4,6 C 84 % 1028,8 hPa 0,0 mm 7,2 km/h S-SW 206 2,1 C 3,9 C
25.09.2018 00:50 4,7 C 83 % 1028,8 hPa 0,0 mm 7,8 km/h SW 221 2,1 C 3,5 C
25.09.2018 00:49 4,7 C 83 % 1028,9 hPa 0,0 mm 6,3 km/h SW 232 2,1 C 4,7 C
25.09.2018 00:48 4,7 C 83 % 1028,9 hPa 0,0 mm 5,2 km/h W 261 2,1 C 4,7 C
25.09.2018 00:47 4,7 C 83 % 1028,9 hPa 0,0 mm 5,4 km/h W-NW 302 2,1 C 4,7 C
25.09.2018 00:46 4,8 C 83 % 1028,9 hPa 0,0 mm 0,1 km/h NW 323 2,2 C 4,8 C
25.09.2018 00:45 4,8 C 83 % 1028,9 hPa 0,0 mm 0,0 km/h N 11 2,2 C 4,8 C
25.09.2018 00:44 4,8 C 83 % 1028,9 hPa 0,0 mm 0,0 km/h W-NW 284 2,2 C 4,8 C
25.09.2018 00:43 4,7 C 83 % 1028,9 hPa 0,0 mm 0,0 km/h N-NW 344 2,1 C 4,7 C
25.09.2018 00:42 4,7 C 83 % 1028,9 hPa 0,0 mm 0,0 km/h N-NW 344 2,1 C 4,7 C
25.09.2018 00:41 4,7 C 83 % 1028,8 hPa 0,0 mm 0,0 km/h N-NW 344 2,1 C 4,7 C
25.09.2018 00:40 4,7 C 83 % 1028,8 hPa 0,0 mm 0,0 km/h NO 51 2,1 C 4,7 C
25.09.2018 00:39 4,7 C 83 % 1028,8 hPa 0,0 mm 0,0 km/h NO 51 2,1 C 4,7 C
25.09.2018 00:38 4,7 C 84 % 1028,8 hPa 0,0 mm 0,0 km/h NO 51 2,2 C 4,7 C
25.09.2018 00:37 4,7 C 83 % 1028,8 hPa 0,0 mm 0,0 km/h O 90 2,1 C 4,7 C
25.09.2018 00:36 4,7 C 84 % 1028,8 hPa 0,0 mm 0,0 km/h O 90 2,2 C 4,7 C
25.09.2018 00:35 4,7 C 84 % 1028,8 hPa 0,0 mm 0,0 km/h S-SO 153 2,2 C 4,7 C
25.09.2018 00:34 4,6 C 84 % 1028,8 hPa 0,0 mm 0,0 km/h S 186 2,1 C 4,6 C
25.09.2018 00:33 4,6 C 84 % 1028,8 hPa 0,0 mm 0,0 km/h SO 141 2,1 C 4,6 C
25.09.2018 00:32 4,6 C 84 % 1028,8 hPa 0,0 mm 0,0 km/h SO 132 2,1 C 4,6 C
25.09.2018 00:31 4,6 C 84 % 1028,8 hPa 0,0 mm 0,0 km/h W 268 2,1 C 4,6 C
25.09.2018 00:30 4,5 C 84 % 1028,9 hPa 0,0 mm 0,0 km/h W 268 2,0 C 4,5 C
25.09.2018 00:29 4,5 C 84 % 1028,8 hPa 0,0 mm 0,1 km/h W 268 2,0 C 4,5 C
25.09.2018 00:28 4,5 C 84 % 1028,9 hPa 0,0 mm 0,5 km/h W 268 2,0 C 4,5 C
25.09.2018 00:27 4,6 C 84 % 1028,9 hPa 0,0 mm 4,7 km/h W 267 2,1 C 4,6 C
25.09.2018 00:26 4,6 C 84 % 1028,9 hPa 0,0 mm 5,6 km/h NW 306 2,1 C 4,6 C
25.09.2018 00:25 4,7 C 83 % 1028,9 hPa 0,0 mm 0,1 km/h N 355 2,1 C 4,7 C
25.09.2018 00:24 4,7 C 83 % 1028,9 hPa 0,0 mm 0,0 km/h W-NW 298 2,1 C 4,7 C
25.09.2018 00:23 4,8 C 83 % 1028,8 hPa 0,0 mm 1,5 km/h W-NW 297 2,2 C 4,8 C
25.09.2018 00:22 4,8 C 83 % 1028,9 hPa 0,0 mm 3,2 km/h N-NW 331 2,2 C 4,8 C
25.09.2018 00:21 4,8 C 83 % 1028,8 hPa 0,0 mm 7,4 km/h N 360 2,2 C 3,9 C
25.09.2018 00:20 4,8 C 83 % 1028,8 hPa 0,0 mm 1,0 km/h O-NO 71 2,2 C 4,8 C
25.09.2018 00:19 4,7 C 83 % 1028,8 hPa 0,0 mm 2,4 km/h W-SW 240 2,1 C 4,7 C
25.09.2018 00:18 4,7 C 83 % 1028,8 hPa 0,0 mm 5,1 km/h W-SW 246 2,1 C 4,7 C
25.09.2018 00:17 4,6 C 84 % 1028,8 hPa 0,0 mm 0,4 km/h W 266 2,1 C 4,6 C
25.09.2018 00:16 4,6 C 84 % 1028,8 hPa 0,0 mm 0,0 km/h W 279 2,1 C 4,6 C
25.09.2018 00:15 4,6 C 84 % 1028,8 hPa 0,0 mm 0,8 km/h W 279 2,1 C 4,6 C
25.09.2018 00:14 4,6 C 84 % 1028,9 hPa 0,0 mm 3,2 km/h W 279 2,1 C 4,6 C
25.09.2018 00:13 4,6 C 84 % 1029,0 hPa 0,0 mm 7,0 km/h W 266 2,1 C 4,1 C
25.09.2018 00:12 4,6 C 84 % 1028,9 hPa 0,0 mm 4,7 km/h W-NW 290 2,1 C 4,6 C
25.09.2018 00:11 4,6 C 84 % 1028,9 hPa 0,0 mm 3,8 km/h N-NO 26 2,1 C 4,6 C
25.09.2018 00:10 4,7 C 84 % 1028,8 hPa 0,0 mm 1,9 km/h W 275 2,2 C 4,7 C
25.09.2018 00:09 4,7 C 84 % 1028,8 hPa 0,0 mm 0,0 km/h W 261 2,2 C 4,7 C
25.09.2018 00:08 4,7 C 84 % 1028,9 hPa 0,0 mm 0,0 km/h N-NO 17 2,2 C 4,7 C
25.09.2018 00:07 4,7 C 84 % 1028,9 hPa 0,0 mm 3,3 km/h N-NO 17 2,2 C 4,7 C
25.09.2018 00:06 4,7 C 84 % 1028,9 hPa 0,0 mm 6,4 km/h N 9 2,2 C 4,7 C
25.09.2018 00:05 4,7 C 85 % 1028,9 hPa 0,0 mm 2,7 km/h NW 315 2,4 C 4,7 C
25.09.2018 00:04 4,6 C 85 % 1028,9 hPa 0,0 mm 0,0 km/h NW 315 2,3 C 4,6 C
25.09.2018 00:03 4,6 C 84 % 1028,9 hPa 0,0 mm 0,0 km/h NW 315 2,1 C 4,6 C
25.09.2018 00:02 4,6 C 84 % 1028,9 hPa 0,0 mm 0,0 km/h NW 315 2,1 C 4,6 C
25.09.2018 00:01 4,6 C 84 % 1028,9 hPa 0,0 mm 0,0 km/h NW 315 2,1 C 4,6 C
25.09.2018 00:00 4,6 C 85 % 1028,9 hPa 0,0 mm 0,4 km/h NW 315 2,3 C 4,6 C
_ Min-Zeit 02:02 13:28 00:57 - 00:01 - - 13:52 01:19
Minimum _ 3,9 C 41 % 1028,7 hPa - 0,0 km/h - - -0,9 C -0,5 C
_ Max-Zeit 12:25 03:07 11:55 00:00 10:15 - - 08:47 12:24
Maximum _ 12,5 C 88 % 1034,6 hPa 0,0 mm 33,6 km/h
NW
- - 5,1 C 12,4 C
Durchschnitt _ 7,6 C 72 % 1031,6 hPa #0,0 mm 5,2 km/h N-NO - 2,3 C 6,3 C